<?xml version="1.0" encoding="UTF-8" standalone="no" ?>
<gpx xmlns="http://www.topografix.com/GPX/1/1" xmlns:xsi="http://www.w3.org/2001/XMLSchema-instance" xsi:schemaLocation="http://www.topografix.com/GPX/1/1 http://www.topografix.com/GPX/1/1/gpx.xsd" version="1.1" creator="VisuGPX - https://www.visugpx.com">
  <metadata>
    <name>CAMON 17_09_2020</name>
  </metadata>
  <trk>
    <name><![CDATA[CAMON 17_09_2020]]></name>
    <extensions>
      <line xmlns="http://www.topografix.com/GPX/gpx_style/0/2">
        <color>0000FF</color>
        <width>4</width>
      </line>
    </extensions>
    <trkseg>
      <trkpt lat="49.88319" lon="2.35431">
        <ele>32</ele>
        <time>2020-09-17T07:09:02.000Z</time>
      </trkpt>
      <trkpt lat="49.88318" lon="2.35433">
        <ele>32</ele>
        <time>2020-09-17T07:09:03.000Z</time>
      </trkpt>
      <trkpt lat="49.88321" lon="2.35447">
        <ele>31.5</ele>
        <time>2020-09-17T07:09:12.000Z</time>
      </trkpt>
      <trkpt lat="49.88322" lon="2.35461">
        <ele>32.4</ele>
        <time>2020-09-17T07:09:29.000Z</time>
      </trkpt>
      <trkpt lat="49.88321" lon="2.35475">
        <ele>32.3</ele>
        <time>2020-09-17T07:09:38.000Z</time>
      </trkpt>
      <trkpt lat="49.88322" lon="2.35489">
        <ele>31.7</ele>
        <time>2020-09-17T07:09:46.000Z</time>
      </trkpt>
      <trkpt lat="49.88324" lon="2.35504">
        <ele>32.3</ele>
        <time>2020-09-17T07:09:54.000Z</time>
      </trkpt>
      <trkpt lat="49.88327" lon="2.35518">
        <ele>32.6</ele>
        <time>2020-09-17T07:10:02.000Z</time>
      </trkpt>
      <trkpt lat="49.88328" lon="2.35533">
        <ele>31.3</ele>
        <time>2020-09-17T07:10:10.000Z</time>
      </trkpt>
      <trkpt lat="49.8833" lon="2.35548">
        <ele>32</ele>
        <time>2020-09-17T07:10:18.000Z</time>
      </trkpt>
      <trkpt lat="49.88332" lon="2.35563">
        <ele>32.1</ele>
        <time>2020-09-17T07:10:27.000Z</time>
      </trkpt>
      <trkpt lat="49.88334" lon="2.35578">
        <ele>31.7</ele>
        <time>2020-09-17T07:10:35.000Z</time>
      </trkpt>
      <trkpt lat="49.88333" lon="2.35593">
        <ele>32.2</ele>
        <time>2020-09-17T07:10:42.000Z</time>
      </trkpt>
      <trkpt lat="49.88332" lon="2.35608">
        <ele>31.3</ele>
        <time>2020-09-17T07:10:49.000Z</time>
      </trkpt>
      <trkpt lat="49.88329" lon="2.35622">
        <ele>31.9</ele>
        <time>2020-09-17T07:10:57.000Z</time>
      </trkpt>
      <trkpt lat="49.88327" lon="2.35637">
        <ele>31.5</ele>
        <time>2020-09-17T07:11:06.000Z</time>
      </trkpt>
      <trkpt lat="49.88323" lon="2.35651">
        <ele>31.8</ele>
        <time>2020-09-17T07:11:16.000Z</time>
      </trkpt>
      <trkpt lat="49.88323" lon="2.35666">
        <ele>31.7</ele>
        <time>2020-09-17T07:11:24.000Z</time>
      </trkpt>
      <trkpt lat="49.88324" lon="2.3568">
        <ele>31.7</ele>
        <time>2020-09-17T07:11:33.000Z</time>
      </trkpt>
      <trkpt lat="49.88327" lon="2.35694">
        <ele>31</ele>
        <time>2020-09-17T07:11:41.000Z</time>
      </trkpt>
      <trkpt lat="49.88327" lon="2.35708">
        <ele>31.5</ele>
        <time>2020-09-17T07:11:48.000Z</time>
      </trkpt>
      <trkpt lat="49.88328" lon="2.35722">
        <ele>30.8</ele>
        <time>2020-09-17T07:11:55.000Z</time>
      </trkpt>
      <trkpt lat="49.88331" lon="2.35736">
        <ele>31.1</ele>
        <time>2020-09-17T07:12:03.000Z</time>
      </trkpt>
      <trkpt lat="49.88332" lon="2.35751">
        <ele>30.3</ele>
        <time>2020-09-17T07:12:11.000Z</time>
      </trkpt>
      <trkpt lat="49.88333" lon="2.35766">
        <ele>31</ele>
        <time>2020-09-17T07:12:18.000Z</time>
      </trkpt>
      <trkpt lat="49.88337" lon="2.3578">
        <ele>31.4</ele>
        <time>2020-09-17T07:12:24.000Z</time>
      </trkpt>
      <trkpt lat="49.88343" lon="2.35793">
        <ele>30.6</ele>
        <time>2020-09-17T07:12:30.000Z</time>
      </trkpt>
      <trkpt lat="49.88347" lon="2.35805">
        <ele>31.1</ele>
        <time>2020-09-17T07:12:36.000Z</time>
      </trkpt>
      <trkpt lat="49.88353" lon="2.35818">
        <ele>31.4</ele>
        <time>2020-09-17T07:12:44.000Z</time>
      </trkpt>
      <trkpt lat="49.88356" lon="2.35832">
        <ele>30.6</ele>
        <time>2020-09-17T07:12:52.000Z</time>
      </trkpt>
      <trkpt lat="49.88362" lon="2.35844">
        <ele>31.4</ele>
        <time>2020-09-17T07:13:00.000Z</time>
      </trkpt>
      <trkpt lat="49.88366" lon="2.35857">
        <ele>30.7</ele>
        <time>2020-09-17T07:13:07.000Z</time>
      </trkpt>
      <trkpt lat="49.88372" lon="2.35869">
        <ele>31.2</ele>
        <time>2020-09-17T07:13:14.000Z</time>
      </trkpt>
      <trkpt lat="49.88376" lon="2.35882">
        <ele>30.7</ele>
        <time>2020-09-17T07:13:22.000Z</time>
      </trkpt>
      <trkpt lat="49.88374" lon="2.35898">
        <ele>31.1</ele>
        <time>2020-09-17T07:13:31.000Z</time>
      </trkpt>
      <trkpt lat="49.88369" lon="2.35911">
        <ele>31.3</ele>
        <time>2020-09-17T07:13:40.000Z</time>
      </trkpt>
      <trkpt lat="49.88364" lon="2.35925">
        <ele>30.9</ele>
        <time>2020-09-17T07:13:48.000Z</time>
      </trkpt>
      <trkpt lat="49.88359" lon="2.35937">
        <ele>31.2</ele>
        <time>2020-09-17T07:13:56.000Z</time>
      </trkpt>
      <trkpt lat="49.88353" lon="2.3595">
        <ele>30.6</ele>
        <time>2020-09-17T07:14:05.000Z</time>
      </trkpt>
      <trkpt lat="49.88349" lon="2.35963">
        <ele>31.3</ele>
        <time>2020-09-17T07:14:15.000Z</time>
      </trkpt>
      <trkpt lat="49.88344" lon="2.35976">
        <ele>30.5</ele>
        <time>2020-09-17T07:14:23.000Z</time>
      </trkpt>
      <trkpt lat="49.88343" lon="2.3599">
        <ele>30.9</ele>
        <time>2020-09-17T07:14:31.000Z</time>
      </trkpt>
      <trkpt lat="49.88345" lon="2.36006">
        <ele>31.1</ele>
        <time>2020-09-17T07:14:37.000Z</time>
      </trkpt>
      <trkpt lat="49.8835" lon="2.3602">
        <ele>31</ele>
        <time>2020-09-17T07:14:44.000Z</time>
      </trkpt>
      <trkpt lat="49.88353" lon="2.36034">
        <ele>31</ele>
        <time>2020-09-17T07:14:53.000Z</time>
      </trkpt>
      <trkpt lat="49.88359" lon="2.36046">
        <ele>30.6</ele>
        <time>2020-09-17T07:15:02.000Z</time>
      </trkpt>
      <trkpt lat="49.88364" lon="2.36059">
        <ele>30.9</ele>
        <time>2020-09-17T07:15:09.000Z</time>
      </trkpt>
      <trkpt lat="49.88367" lon="2.36072">
        <ele>30.9</ele>
        <time>2020-09-17T07:15:18.000Z</time>
      </trkpt>
      <trkpt lat="49.88373" lon="2.36085">
        <ele>30</ele>
        <time>2020-09-17T07:15:26.000Z</time>
      </trkpt>
      <trkpt lat="49.88379" lon="2.36097">
        <ele>30.9</ele>
        <time>2020-09-17T07:15:34.000Z</time>
      </trkpt>
      <trkpt lat="49.88382" lon="2.36111">
        <ele>30.3</ele>
        <time>2020-09-17T07:15:42.000Z</time>
      </trkpt>
      <trkpt lat="49.88385" lon="2.36125">
        <ele>30.9</ele>
        <time>2020-09-17T07:15:50.000Z</time>
      </trkpt>
      <trkpt lat="49.88392" lon="2.36134">
        <ele>30.8</ele>
        <time>2020-09-17T07:15:55.000Z</time>
      </trkpt>
      <trkpt lat="49.88401" lon="2.3614">
        <ele>30.8</ele>
        <time>2020-09-17T07:16:02.000Z</time>
      </trkpt>
      <trkpt lat="49.8841" lon="2.36141">
        <ele>30.2</ele>
        <time>2020-09-17T07:16:07.000Z</time>
      </trkpt>
      <trkpt lat="49.88421" lon="2.36141">
        <ele>30.6</ele>
        <time>2020-09-17T07:16:12.000Z</time>
      </trkpt>
      <trkpt lat="49.8843" lon="2.36143">
        <ele>30.5</ele>
        <time>2020-09-17T07:16:19.000Z</time>
      </trkpt>
      <trkpt lat="49.88439" lon="2.36141">
        <ele>30.9</ele>
        <time>2020-09-17T07:16:26.000Z</time>
      </trkpt>
      <trkpt lat="49.88447" lon="2.36135">
        <ele>30.9</ele>
        <time>2020-09-17T07:16:33.000Z</time>
      </trkpt>
      <trkpt lat="49.88456" lon="2.36129">
        <ele>30.7</ele>
        <time>2020-09-17T07:16:40.000Z</time>
      </trkpt>
      <trkpt lat="49.88465" lon="2.36124">
        <ele>30.1</ele>
        <time>2020-09-17T07:16:48.000Z</time>
      </trkpt>
      <trkpt lat="49.88475" lon="2.36123">
        <ele>30.6</ele>
        <time>2020-09-17T07:16:56.000Z</time>
      </trkpt>
      <trkpt lat="49.88485" lon="2.36125">
        <ele>30.7</ele>
        <time>2020-09-17T07:17:05.000Z</time>
      </trkpt>
      <trkpt lat="49.88494" lon="2.36128">
        <ele>30.9</ele>
        <time>2020-09-17T07:17:18.000Z</time>
      </trkpt>
      <trkpt lat="49.88499" lon="2.36139">
        <ele>30.4</ele>
        <time>2020-09-17T07:17:31.000Z</time>
      </trkpt>
      <trkpt lat="49.88498" lon="2.36154">
        <ele>30.6</ele>
        <time>2020-09-17T07:17:41.000Z</time>
      </trkpt>
      <trkpt lat="49.88498" lon="2.3617">
        <ele>31</ele>
        <time>2020-09-17T07:17:49.000Z</time>
      </trkpt>
      <trkpt lat="49.88499" lon="2.36184">
        <ele>30.7</ele>
        <time>2020-09-17T07:17:56.000Z</time>
      </trkpt>
      <trkpt lat="49.88501" lon="2.36198">
        <ele>30.8</ele>
        <time>2020-09-17T07:18:05.000Z</time>
      </trkpt>
      <trkpt lat="49.88502" lon="2.36213">
        <ele>31</ele>
        <time>2020-09-17T07:18:14.000Z</time>
      </trkpt>
      <trkpt lat="49.88501" lon="2.36228">
        <ele>30.7</ele>
        <time>2020-09-17T07:18:22.000Z</time>
      </trkpt>
      <trkpt lat="49.88495" lon="2.36241">
        <ele>30.7</ele>
        <time>2020-09-17T07:18:32.000Z</time>
      </trkpt>
      <trkpt lat="49.88488" lon="2.36251">
        <ele>30.6</ele>
        <time>2020-09-17T07:18:40.000Z</time>
      </trkpt>
      <trkpt lat="49.88482" lon="2.36262">
        <ele>30.5</ele>
        <time>2020-09-17T07:18:49.000Z</time>
      </trkpt>
      <trkpt lat="49.88475" lon="2.36273">
        <ele>30.7</ele>
        <time>2020-09-17T07:18:58.000Z</time>
      </trkpt>
      <trkpt lat="49.88468" lon="2.36282">
        <ele>30.4</ele>
        <time>2020-09-17T07:19:09.000Z</time>
      </trkpt>
      <trkpt lat="49.88467" lon="2.36296">
        <ele>30.8</ele>
        <time>2020-09-17T07:19:19.000Z</time>
      </trkpt>
      <trkpt lat="49.88459" lon="2.36304">
        <ele>30.6</ele>
        <time>2020-09-17T07:19:27.000Z</time>
      </trkpt>
      <trkpt lat="49.8845" lon="2.36312">
        <ele>30.9</ele>
        <time>2020-09-17T07:19:36.000Z</time>
      </trkpt>
      <trkpt lat="49.88443" lon="2.36321">
        <ele>31.3</ele>
        <time>2020-09-17T07:19:43.000Z</time>
      </trkpt>
      <trkpt lat="49.88437" lon="2.36332">
        <ele>30.7</ele>
        <time>2020-09-17T07:19:51.000Z</time>
      </trkpt>
      <trkpt lat="49.88432" lon="2.36346">
        <ele>30.7</ele>
        <time>2020-09-17T07:19:59.000Z</time>
      </trkpt>
      <trkpt lat="49.88428" lon="2.36358">
        <ele>31.3</ele>
        <time>2020-09-17T07:20:06.000Z</time>
      </trkpt>
      <trkpt lat="49.88425" lon="2.36372">
        <ele>30.8</ele>
        <time>2020-09-17T07:20:14.000Z</time>
      </trkpt>
      <trkpt lat="49.88422" lon="2.36385">
        <ele>31.1</ele>
        <time>2020-09-17T07:20:21.000Z</time>
      </trkpt>
      <trkpt lat="49.88421" lon="2.36401">
        <ele>31.5</ele>
        <time>2020-09-17T07:20:29.000Z</time>
      </trkpt>
      <trkpt lat="49.88418" lon="2.36415">
        <ele>30.8</ele>
        <time>2020-09-17T07:20:35.000Z</time>
      </trkpt>
      <trkpt lat="49.88416" lon="2.36429">
        <ele>30.9</ele>
        <time>2020-09-17T07:20:41.000Z</time>
      </trkpt>
      <trkpt lat="49.88415" lon="2.36444">
        <ele>31.3</ele>
        <time>2020-09-17T07:20:48.000Z</time>
      </trkpt>
      <trkpt lat="49.88411" lon="2.36458">
        <ele>30.7</ele>
        <time>2020-09-17T07:20:55.000Z</time>
      </trkpt>
      <trkpt lat="49.88409" lon="2.36472">
        <ele>30.7</ele>
        <time>2020-09-17T07:21:02.000Z</time>
      </trkpt>
      <trkpt lat="49.88406" lon="2.36487">
        <ele>30.7</ele>
        <time>2020-09-17T07:21:11.000Z</time>
      </trkpt>
      <trkpt lat="49.88406" lon="2.36501">
        <ele>30.7</ele>
        <time>2020-09-17T07:21:19.000Z</time>
      </trkpt>
      <trkpt lat="49.88405" lon="2.36516">
        <ele>30.9</ele>
        <time>2020-09-17T07:21:26.000Z</time>
      </trkpt>
      <trkpt lat="49.88405" lon="2.3653">
        <ele>30.5</ele>
        <time>2020-09-17T07:21:33.000Z</time>
      </trkpt>
      <trkpt lat="49.88403" lon="2.36545">
        <ele>30.9</ele>
        <time>2020-09-17T07:21:40.000Z</time>
      </trkpt>
      <trkpt lat="49.88402" lon="2.36559">
        <ele>30.4</ele>
        <time>2020-09-17T07:21:48.000Z</time>
      </trkpt>
      <trkpt lat="49.884" lon="2.36574">
        <ele>30.6</ele>
        <time>2020-09-17T07:21:56.000Z</time>
      </trkpt>
      <trkpt lat="49.88401" lon="2.36588">
        <ele>31.1</ele>
        <time>2020-09-17T07:22:05.000Z</time>
      </trkpt>
      <trkpt lat="49.88401" lon="2.36604">
        <ele>30.7</ele>
        <time>2020-09-17T07:22:14.000Z</time>
      </trkpt>
      <trkpt lat="49.88402" lon="2.36618">
        <ele>31.2</ele>
        <time>2020-09-17T07:22:22.000Z</time>
      </trkpt>
      <trkpt lat="49.88401" lon="2.36633">
        <ele>30.4</ele>
        <time>2020-09-17T07:22:30.000Z</time>
      </trkpt>
      <trkpt lat="49.88402" lon="2.36648">
        <ele>31.1</ele>
        <time>2020-09-17T07:22:38.000Z</time>
      </trkpt>
      <trkpt lat="49.88399" lon="2.36663">
        <ele>30.9</ele>
        <time>2020-09-17T07:22:46.000Z</time>
      </trkpt>
      <trkpt lat="49.88398" lon="2.36679">
        <ele>30.9</ele>
        <time>2020-09-17T07:22:54.000Z</time>
      </trkpt>
      <trkpt lat="49.88397" lon="2.36693">
        <ele>30.9</ele>
        <time>2020-09-17T07:23:02.000Z</time>
      </trkpt>
      <trkpt lat="49.88395" lon="2.36708">
        <ele>29.5</ele>
        <time>2020-09-17T07:23:09.000Z</time>
      </trkpt>
      <trkpt lat="49.88394" lon="2.36723">
        <ele>30.8</ele>
        <time>2020-09-17T07:23:16.000Z</time>
      </trkpt>
      <trkpt lat="49.88396" lon="2.36737">
        <ele>30.6</ele>
        <time>2020-09-17T07:23:25.000Z</time>
      </trkpt>
      <trkpt lat="49.88396" lon="2.36751">
        <ele>29.9</ele>
        <time>2020-09-17T07:23:32.000Z</time>
      </trkpt>
      <trkpt lat="49.88396" lon="2.36766">
        <ele>30.5</ele>
        <time>2020-09-17T07:23:39.000Z</time>
      </trkpt>
      <trkpt lat="49.88393" lon="2.36781">
        <ele>30.5</ele>
        <time>2020-09-17T07:23:46.000Z</time>
      </trkpt>
      <trkpt lat="49.88393" lon="2.36796">
        <ele>29.8</ele>
        <time>2020-09-17T07:23:53.000Z</time>
      </trkpt>
      <trkpt lat="49.88393" lon="2.36811">
        <ele>30.4</ele>
        <time>2020-09-17T07:24:00.000Z</time>
      </trkpt>
      <trkpt lat="49.88393" lon="2.36826">
        <ele>30.7</ele>
        <time>2020-09-17T07:24:07.000Z</time>
      </trkpt>
      <trkpt lat="49.88394" lon="2.36841">
        <ele>30.2</ele>
        <time>2020-09-17T07:24:15.000Z</time>
      </trkpt>
      <trkpt lat="49.88395" lon="2.36855">
        <ele>30.5</ele>
        <time>2020-09-17T07:24:22.000Z</time>
      </trkpt>
      <trkpt lat="49.88395" lon="2.36871">
        <ele>30.1</ele>
        <time>2020-09-17T07:24:30.000Z</time>
      </trkpt>
      <trkpt lat="49.88395" lon="2.36885">
        <ele>29.8</ele>
        <time>2020-09-17T07:24:37.000Z</time>
      </trkpt>
      <trkpt lat="49.88395" lon="2.369">
        <ele>30.4</ele>
        <time>2020-09-17T07:24:45.000Z</time>
      </trkpt>
      <trkpt lat="49.88395" lon="2.36915">
        <ele>30.3</ele>
        <time>2020-09-17T07:24:53.000Z</time>
      </trkpt>
      <trkpt lat="49.88396" lon="2.3693">
        <ele>30.5</ele>
        <time>2020-09-17T07:25:01.000Z</time>
      </trkpt>
      <trkpt lat="49.88393" lon="2.36945">
        <ele>29.8</ele>
        <time>2020-09-17T07:25:09.000Z</time>
      </trkpt>
      <trkpt lat="49.88391" lon="2.36959">
        <ele>30.6</ele>
        <time>2020-09-17T07:25:17.000Z</time>
      </trkpt>
      <trkpt lat="49.8839" lon="2.36974">
        <ele>30.2</ele>
        <time>2020-09-17T07:25:25.000Z</time>
      </trkpt>
      <trkpt lat="49.88389" lon="2.36989">
        <ele>30.4</ele>
        <time>2020-09-17T07:25:31.000Z</time>
      </trkpt>
      <trkpt lat="49.88389" lon="2.37003">
        <ele>30.8</ele>
        <time>2020-09-17T07:25:38.000Z</time>
      </trkpt>
      <trkpt lat="49.8839" lon="2.3702">
        <ele>30</ele>
        <time>2020-09-17T07:25:47.000Z</time>
      </trkpt>
      <trkpt lat="49.8839" lon="2.37034">
        <ele>30.7</ele>
        <time>2020-09-17T07:25:54.000Z</time>
      </trkpt>
      <trkpt lat="49.88392" lon="2.37048">
        <ele>30.4</ele>
        <time>2020-09-17T07:26:01.000Z</time>
      </trkpt>
      <trkpt lat="49.88391" lon="2.37062">
        <ele>30.5</ele>
        <time>2020-09-17T07:26:08.000Z</time>
      </trkpt>
      <trkpt lat="49.88392" lon="2.37077">
        <ele>30.9</ele>
        <time>2020-09-17T07:26:16.000Z</time>
      </trkpt>
      <trkpt lat="49.88393" lon="2.37091">
        <ele>30.4</ele>
        <time>2020-09-17T07:26:25.000Z</time>
      </trkpt>
      <trkpt lat="49.8839" lon="2.37107">
        <ele>30.5</ele>
        <time>2020-09-17T07:26:33.000Z</time>
      </trkpt>
      <trkpt lat="49.88389" lon="2.37121">
        <ele>30.8</ele>
        <time>2020-09-17T07:26:42.000Z</time>
      </trkpt>
      <trkpt lat="49.8839" lon="2.37137">
        <ele>30.2</ele>
        <time>2020-09-17T07:26:50.000Z</time>
      </trkpt>
      <trkpt lat="49.8839" lon="2.37151">
        <ele>30.9</ele>
        <time>2020-09-17T07:26:58.000Z</time>
      </trkpt>
      <trkpt lat="49.8839" lon="2.37165">
        <ele>30.4</ele>
        <time>2020-09-17T07:27:07.000Z</time>
      </trkpt>
      <trkpt lat="49.88387" lon="2.3718">
        <ele>30.8</ele>
        <time>2020-09-17T07:27:15.000Z</time>
      </trkpt>
      <trkpt lat="49.88383" lon="2.37193">
        <ele>30.8</ele>
        <time>2020-09-17T07:27:24.000Z</time>
      </trkpt>
      <trkpt lat="49.88378" lon="2.37206">
        <ele>30.8</ele>
        <time>2020-09-17T07:27:36.000Z</time>
      </trkpt>
      <trkpt lat="49.88375" lon="2.3722">
        <ele>30.2</ele>
        <time>2020-09-17T07:27:44.000Z</time>
      </trkpt>
      <trkpt lat="49.88371" lon="2.37234">
        <ele>30.8</ele>
        <time>2020-09-17T07:27:52.000Z</time>
      </trkpt>
      <trkpt lat="49.88365" lon="2.37245">
        <ele>30.1</ele>
        <time>2020-09-17T07:28:00.000Z</time>
      </trkpt>
      <trkpt lat="49.8836" lon="2.37257">
        <ele>30.6</ele>
        <time>2020-09-17T07:28:07.000Z</time>
      </trkpt>
      <trkpt lat="49.88355" lon="2.37271">
        <ele>30.3</ele>
        <time>2020-09-17T07:28:15.000Z</time>
      </trkpt>
      <trkpt lat="49.88349" lon="2.37282">
        <ele>30.1</ele>
        <time>2020-09-17T07:28:21.000Z</time>
      </trkpt>
      <trkpt lat="49.88347" lon="2.37296">
        <ele>30.7</ele>
        <time>2020-09-17T07:28:28.000Z</time>
      </trkpt>
      <trkpt lat="49.88346" lon="2.3731">
        <ele>30</ele>
        <time>2020-09-17T07:28:35.000Z</time>
      </trkpt>
      <trkpt lat="49.88345" lon="2.37324">
        <ele>30.2</ele>
        <time>2020-09-17T07:28:42.000Z</time>
      </trkpt>
      <trkpt lat="49.88344" lon="2.3734">
        <ele>30.2</ele>
        <time>2020-09-17T07:28:49.000Z</time>
      </trkpt>
      <trkpt lat="49.88345" lon="2.37355">
        <ele>30.2</ele>
        <time>2020-09-17T07:28:57.000Z</time>
      </trkpt>
      <trkpt lat="49.88347" lon="2.37369">
        <ele>30.3</ele>
        <time>2020-09-17T07:29:04.000Z</time>
      </trkpt>
      <trkpt lat="49.8835" lon="2.37383">
        <ele>30.4</ele>
        <time>2020-09-17T07:29:12.000Z</time>
      </trkpt>
      <trkpt lat="49.88353" lon="2.37397">
        <ele>30.7</ele>
        <time>2020-09-17T07:29:20.000Z</time>
      </trkpt>
      <trkpt lat="49.88359" lon="2.37409">
        <ele>30.9</ele>
        <time>2020-09-17T07:29:27.000Z</time>
      </trkpt>
      <trkpt lat="49.88367" lon="2.37419">
        <ele>30.2</ele>
        <time>2020-09-17T07:29:33.000Z</time>
      </trkpt>
      <trkpt lat="49.88374" lon="2.37429">
        <ele>30.5</ele>
        <time>2020-09-17T07:29:39.000Z</time>
      </trkpt>
      <trkpt lat="49.88381" lon="2.37437">
        <ele>30.8</ele>
        <time>2020-09-17T07:29:46.000Z</time>
      </trkpt>
      <trkpt lat="49.88389" lon="2.37447">
        <ele>30.8</ele>
        <time>2020-09-17T07:29:54.000Z</time>
      </trkpt>
      <trkpt lat="49.88398" lon="2.37453">
        <ele>30.9</ele>
        <time>2020-09-17T07:30:01.000Z</time>
      </trkpt>
      <trkpt lat="49.88406" lon="2.3746">
        <ele>30.1</ele>
        <time>2020-09-17T07:30:09.000Z</time>
      </trkpt>
      <trkpt lat="49.88415" lon="2.37467">
        <ele>30.5</ele>
        <time>2020-09-17T07:30:16.000Z</time>
      </trkpt>
      <trkpt lat="49.88422" lon="2.37477">
        <ele>29.6</ele>
        <time>2020-09-17T07:30:23.000Z</time>
      </trkpt>
      <trkpt lat="49.88426" lon="2.37491">
        <ele>30.3</ele>
        <time>2020-09-17T07:30:32.000Z</time>
      </trkpt>
      <trkpt lat="49.88431" lon="2.37503">
        <ele>30.1</ele>
        <time>2020-09-17T07:30:39.000Z</time>
      </trkpt>
      <trkpt lat="49.88436" lon="2.37516">
        <ele>30.5</ele>
        <time>2020-09-17T07:30:47.000Z</time>
      </trkpt>
      <trkpt lat="49.88441" lon="2.37528">
        <ele>30.2</ele>
        <time>2020-09-17T07:30:55.000Z</time>
      </trkpt>
      <trkpt lat="49.88443" lon="2.37542">
        <ele>30.2</ele>
        <time>2020-09-17T07:31:04.000Z</time>
      </trkpt>
      <trkpt lat="49.8845" lon="2.37553">
        <ele>30</ele>
        <time>2020-09-17T07:31:12.000Z</time>
      </trkpt>
      <trkpt lat="49.88456" lon="2.37564">
        <ele>30.1</ele>
        <time>2020-09-17T07:31:19.000Z</time>
      </trkpt>
      <trkpt lat="49.88461" lon="2.37577">
        <ele>30.4</ele>
        <time>2020-09-17T07:31:27.000Z</time>
      </trkpt>
      <trkpt lat="49.88465" lon="2.37591">
        <ele>30.2</ele>
        <time>2020-09-17T07:31:35.000Z</time>
      </trkpt>
      <trkpt lat="49.8847" lon="2.37604">
        <ele>30.6</ele>
        <time>2020-09-17T07:31:44.000Z</time>
      </trkpt>
      <trkpt lat="49.88475" lon="2.37616">
        <ele>30</ele>
        <time>2020-09-17T07:31:52.000Z</time>
      </trkpt>
      <trkpt lat="49.8848" lon="2.37629">
        <ele>30.5</ele>
        <time>2020-09-17T07:32:01.000Z</time>
      </trkpt>
      <trkpt lat="49.88484" lon="2.37642">
        <ele>29.9</ele>
        <time>2020-09-17T07:32:09.000Z</time>
      </trkpt>
      <trkpt lat="49.88487" lon="2.37657">
        <ele>30.7</ele>
        <time>2020-09-17T07:32:16.000Z</time>
      </trkpt>
      <trkpt lat="49.8849" lon="2.37671">
        <ele>30</ele>
        <time>2020-09-17T07:32:23.000Z</time>
      </trkpt>
      <trkpt lat="49.88493" lon="2.37685">
        <ele>30.8</ele>
        <time>2020-09-17T07:32:31.000Z</time>
      </trkpt>
      <trkpt lat="49.88496" lon="2.37699">
        <ele>29.8</ele>
        <time>2020-09-17T07:32:38.000Z</time>
      </trkpt>
      <trkpt lat="49.885" lon="2.37713">
        <ele>30.6</ele>
        <time>2020-09-17T07:32:45.000Z</time>
      </trkpt>
      <trkpt lat="49.88503" lon="2.37728">
        <ele>29.5</ele>
        <time>2020-09-17T07:32:54.000Z</time>
      </trkpt>
      <trkpt lat="49.88503" lon="2.37743">
        <ele>30.6</ele>
        <time>2020-09-17T07:33:01.000Z</time>
      </trkpt>
      <trkpt lat="49.88504" lon="2.37758">
        <ele>30.8</ele>
        <time>2020-09-17T07:33:08.000Z</time>
      </trkpt>
      <trkpt lat="49.88505" lon="2.37772">
        <ele>30.6</ele>
        <time>2020-09-17T07:33:16.000Z</time>
      </trkpt>
      <trkpt lat="49.88504" lon="2.37786">
        <ele>30.8</ele>
        <time>2020-09-17T07:33:23.000Z</time>
      </trkpt>
      <trkpt lat="49.88506" lon="2.37801">
        <ele>30.6</ele>
        <time>2020-09-17T07:33:31.000Z</time>
      </trkpt>
      <trkpt lat="49.88505" lon="2.37816">
        <ele>30.3</ele>
        <time>2020-09-17T07:33:38.000Z</time>
      </trkpt>
      <trkpt lat="49.88506" lon="2.3783">
        <ele>30.9</ele>
        <time>2020-09-17T07:33:46.000Z</time>
      </trkpt>
      <trkpt lat="49.88506" lon="2.37844">
        <ele>30.8</ele>
        <time>2020-09-17T07:33:53.000Z</time>
      </trkpt>
      <trkpt lat="49.88505" lon="2.37859">
        <ele>31.2</ele>
        <time>2020-09-17T07:34:02.000Z</time>
      </trkpt>
      <trkpt lat="49.88506" lon="2.37874">
        <ele>31.2</ele>
        <time>2020-09-17T07:34:11.000Z</time>
      </trkpt>
      <trkpt lat="49.88506" lon="2.37889">
        <ele>31.3</ele>
        <time>2020-09-17T07:34:19.000Z</time>
      </trkpt>
      <trkpt lat="49.88506" lon="2.37904">
        <ele>31.3</ele>
        <time>2020-09-17T07:34:27.000Z</time>
      </trkpt>
      <trkpt lat="49.88507" lon="2.37919">
        <ele>31.2</ele>
        <time>2020-09-17T07:34:36.000Z</time>
      </trkpt>
      <trkpt lat="49.88507" lon="2.37933">
        <ele>31.3</ele>
        <time>2020-09-17T07:34:44.000Z</time>
      </trkpt>
      <trkpt lat="49.88507" lon="2.3795">
        <ele>31</ele>
        <time>2020-09-17T07:34:52.000Z</time>
      </trkpt>
      <trkpt lat="49.88507" lon="2.37965">
        <ele>31</ele>
        <time>2020-09-17T07:35:00.000Z</time>
      </trkpt>
      <trkpt lat="49.88506" lon="2.37982">
        <ele>31.3</ele>
        <time>2020-09-17T07:35:09.000Z</time>
      </trkpt>
      <trkpt lat="49.88506" lon="2.37996">
        <ele>31.3</ele>
        <time>2020-09-17T07:35:15.000Z</time>
      </trkpt>
      <trkpt lat="49.88506" lon="2.3801">
        <ele>31.2</ele>
        <time>2020-09-17T07:35:22.000Z</time>
      </trkpt>
      <trkpt lat="49.88505" lon="2.38025">
        <ele>31.5</ele>
        <time>2020-09-17T07:35:30.000Z</time>
      </trkpt>
      <trkpt lat="49.88504" lon="2.3804">
        <ele>31.2</ele>
        <time>2020-09-17T07:35:37.000Z</time>
      </trkpt>
      <trkpt lat="49.88505" lon="2.38055">
        <ele>31.1</ele>
        <time>2020-09-17T07:35:45.000Z</time>
      </trkpt>
      <trkpt lat="49.88505" lon="2.3807">
        <ele>31.3</ele>
        <time>2020-09-17T07:35:53.000Z</time>
      </trkpt>
      <trkpt lat="49.88504" lon="2.38085">
        <ele>31.2</ele>
        <time>2020-09-17T07:36:01.000Z</time>
      </trkpt>
      <trkpt lat="49.88503" lon="2.38101">
        <ele>31.3</ele>
        <time>2020-09-17T07:36:08.000Z</time>
      </trkpt>
      <trkpt lat="49.88502" lon="2.38115">
        <ele>31.4</ele>
        <time>2020-09-17T07:36:15.000Z</time>
      </trkpt>
      <trkpt lat="49.88501" lon="2.3813">
        <ele>31.4</ele>
        <time>2020-09-17T07:36:24.000Z</time>
      </trkpt>
      <trkpt lat="49.88501" lon="2.38147">
        <ele>31.1</ele>
        <time>2020-09-17T07:36:32.000Z</time>
      </trkpt>
      <trkpt lat="49.88499" lon="2.38162">
        <ele>31.3</ele>
        <time>2020-09-17T07:36:40.000Z</time>
      </trkpt>
      <trkpt lat="49.88497" lon="2.38177">
        <ele>31.3</ele>
        <time>2020-09-17T07:36:47.000Z</time>
      </trkpt>
      <trkpt lat="49.88494" lon="2.38192">
        <ele>31.3</ele>
        <time>2020-09-17T07:36:55.000Z</time>
      </trkpt>
      <trkpt lat="49.88491" lon="2.38206">
        <ele>31.1</ele>
        <time>2020-09-17T07:37:03.000Z</time>
      </trkpt>
      <trkpt lat="49.88487" lon="2.3822">
        <ele>30.8</ele>
        <time>2020-09-17T07:37:10.000Z</time>
      </trkpt>
      <trkpt lat="49.88484" lon="2.38234">
        <ele>31</ele>
        <time>2020-09-17T07:37:17.000Z</time>
      </trkpt>
      <trkpt lat="49.8848" lon="2.38248">
        <ele>31.1</ele>
        <time>2020-09-17T07:37:24.000Z</time>
      </trkpt>
      <trkpt lat="49.88476" lon="2.38261">
        <ele>30.9</ele>
        <time>2020-09-17T07:37:31.000Z</time>
      </trkpt>
      <trkpt lat="49.88472" lon="2.38274">
        <ele>30.9</ele>
        <time>2020-09-17T07:37:37.000Z</time>
      </trkpt>
      <trkpt lat="49.88468" lon="2.38287">
        <ele>30.7</ele>
        <time>2020-09-17T07:37:45.000Z</time>
      </trkpt>
      <trkpt lat="49.88463" lon="2.383">
        <ele>30.7</ele>
        <time>2020-09-17T07:37:52.000Z</time>
      </trkpt>
      <trkpt lat="49.88458" lon="2.38312">
        <ele>29.9</ele>
        <time>2020-09-17T07:38:02.000Z</time>
      </trkpt>
      <trkpt lat="49.88452" lon="2.38323">
        <ele>30.6</ele>
        <time>2020-09-17T07:38:12.000Z</time>
      </trkpt>
      <trkpt lat="49.88446" lon="2.38337">
        <ele>30.6</ele>
        <time>2020-09-17T07:38:20.000Z</time>
      </trkpt>
      <trkpt lat="49.88441" lon="2.38351">
        <ele>30.6</ele>
        <time>2020-09-17T07:38:28.000Z</time>
      </trkpt>
      <trkpt lat="49.88436" lon="2.38363">
        <ele>30.5</ele>
        <time>2020-09-17T07:38:36.000Z</time>
      </trkpt>
      <trkpt lat="49.88433" lon="2.38376">
        <ele>30.6</ele>
        <time>2020-09-17T07:38:43.000Z</time>
      </trkpt>
      <trkpt lat="49.88428" lon="2.3839">
        <ele>30.9</ele>
        <time>2020-09-17T07:38:50.000Z</time>
      </trkpt>
      <trkpt lat="49.88426" lon="2.38404">
        <ele>31.1</ele>
        <time>2020-09-17T07:38:58.000Z</time>
      </trkpt>
      <trkpt lat="49.88425" lon="2.38419">
        <ele>31.1</ele>
        <time>2020-09-17T07:39:06.000Z</time>
      </trkpt>
      <trkpt lat="49.88422" lon="2.38434">
        <ele>30.9</ele>
        <time>2020-09-17T07:39:14.000Z</time>
      </trkpt>
      <trkpt lat="49.88421" lon="2.38448">
        <ele>30.8</ele>
        <time>2020-09-17T07:39:21.000Z</time>
      </trkpt>
      <trkpt lat="49.88419" lon="2.38463">
        <ele>30.2</ele>
        <time>2020-09-17T07:39:30.000Z</time>
      </trkpt>
      <trkpt lat="49.88418" lon="2.38479">
        <ele>30.9</ele>
        <time>2020-09-17T07:39:38.000Z</time>
      </trkpt>
      <trkpt lat="49.88417" lon="2.38494">
        <ele>30.9</ele>
        <time>2020-09-17T07:39:45.000Z</time>
      </trkpt>
      <trkpt lat="49.88415" lon="2.3851">
        <ele>30.8</ele>
        <time>2020-09-17T07:39:52.000Z</time>
      </trkpt>
      <trkpt lat="49.88414" lon="2.38525">
        <ele>31</ele>
        <time>2020-09-17T07:39:59.000Z</time>
      </trkpt>
      <trkpt lat="49.88415" lon="2.3854">
        <ele>31.1</ele>
        <time>2020-09-17T07:40:07.000Z</time>
      </trkpt>
      <trkpt lat="49.88416" lon="2.38555">
        <ele>30.4</ele>
        <time>2020-09-17T07:40:14.000Z</time>
      </trkpt>
      <trkpt lat="49.88417" lon="2.38571">
        <ele>31.1</ele>
        <time>2020-09-17T07:40:21.000Z</time>
      </trkpt>
      <trkpt lat="49.8842" lon="2.38585">
        <ele>30.6</ele>
        <time>2020-09-17T07:40:29.000Z</time>
      </trkpt>
      <trkpt lat="49.88423" lon="2.386">
        <ele>30.7</ele>
        <time>2020-09-17T07:40:36.000Z</time>
      </trkpt>
      <trkpt lat="49.88425" lon="2.38614">
        <ele>30.3</ele>
        <time>2020-09-17T07:40:44.000Z</time>
      </trkpt>
      <trkpt lat="49.88427" lon="2.38628">
        <ele>30.4</ele>
        <time>2020-09-17T07:40:51.000Z</time>
      </trkpt>
      <trkpt lat="49.88428" lon="2.38643">
        <ele>30.9</ele>
        <time>2020-09-17T07:40:59.000Z</time>
      </trkpt>
      <trkpt lat="49.88431" lon="2.38657">
        <ele>31.1</ele>
        <time>2020-09-17T07:41:07.000Z</time>
      </trkpt>
      <trkpt lat="49.88432" lon="2.38672">
        <ele>30.4</ele>
        <time>2020-09-17T07:41:15.000Z</time>
      </trkpt>
      <trkpt lat="49.88432" lon="2.38687">
        <ele>30.7</ele>
        <time>2020-09-17T07:41:22.000Z</time>
      </trkpt>
      <trkpt lat="49.8843" lon="2.38701">
        <ele>30.9</ele>
        <time>2020-09-17T07:41:30.000Z</time>
      </trkpt>
      <trkpt lat="49.88428" lon="2.38716">
        <ele>30.9</ele>
        <time>2020-09-17T07:41:37.000Z</time>
      </trkpt>
      <trkpt lat="49.88426" lon="2.38731">
        <ele>30</ele>
        <time>2020-09-17T07:41:44.000Z</time>
      </trkpt>
      <trkpt lat="49.88424" lon="2.38746">
        <ele>30.7</ele>
        <time>2020-09-17T07:41:51.000Z</time>
      </trkpt>
      <trkpt lat="49.8842" lon="2.3876">
        <ele>31</ele>
        <time>2020-09-17T07:41:59.000Z</time>
      </trkpt>
      <trkpt lat="49.88417" lon="2.38774">
        <ele>30.4</ele>
        <time>2020-09-17T07:42:08.000Z</time>
      </trkpt>
      <trkpt lat="49.88415" lon="2.38788">
        <ele>30.3</ele>
        <time>2020-09-17T07:42:15.000Z</time>
      </trkpt>
      <trkpt lat="49.88411" lon="2.38804">
        <ele>30.9</ele>
        <time>2020-09-17T07:42:23.000Z</time>
      </trkpt>
      <trkpt lat="49.88409" lon="2.38817">
        <ele>30.5</ele>
        <time>2020-09-17T07:42:30.000Z</time>
      </trkpt>
      <trkpt lat="49.88406" lon="2.38832">
        <ele>29.8</ele>
        <time>2020-09-17T07:42:37.000Z</time>
      </trkpt>
      <trkpt lat="49.88403" lon="2.38846">
        <ele>30.3</ele>
        <time>2020-09-17T07:42:44.000Z</time>
      </trkpt>
      <trkpt lat="49.88401" lon="2.38861">
        <ele>30.6</ele>
        <time>2020-09-17T07:42:51.000Z</time>
      </trkpt>
      <trkpt lat="49.88401" lon="2.38875">
        <ele>30.4</ele>
        <time>2020-09-17T07:42:58.000Z</time>
      </trkpt>
      <trkpt lat="49.88399" lon="2.3889">
        <ele>30.2</ele>
        <time>2020-09-17T07:43:05.000Z</time>
      </trkpt>
      <trkpt lat="49.88398" lon="2.38905">
        <ele>30.6</ele>
        <time>2020-09-17T07:43:12.000Z</time>
      </trkpt>
      <trkpt lat="49.88399" lon="2.38921">
        <ele>29.6</ele>
        <time>2020-09-17T07:43:21.000Z</time>
      </trkpt>
      <trkpt lat="49.884" lon="2.38935">
        <ele>30.4</ele>
        <time>2020-09-17T07:43:29.000Z</time>
      </trkpt>
      <trkpt lat="49.884" lon="2.38951">
        <ele>29.4</ele>
        <time>2020-09-17T07:43:37.000Z</time>
      </trkpt>
      <trkpt lat="49.88401" lon="2.38966">
        <ele>30.4</ele>
        <time>2020-09-17T07:43:44.000Z</time>
      </trkpt>
      <trkpt lat="49.88404" lon="2.38982">
        <ele>30.5</ele>
        <time>2020-09-17T07:43:52.000Z</time>
      </trkpt>
      <trkpt lat="49.88404" lon="2.38996">
        <ele>29.8</ele>
        <time>2020-09-17T07:44:00.000Z</time>
      </trkpt>
      <trkpt lat="49.88408" lon="2.39011">
        <ele>30.4</ele>
        <time>2020-09-17T07:44:08.000Z</time>
      </trkpt>
      <trkpt lat="49.8841" lon="2.39027">
        <ele>29.8</ele>
        <time>2020-09-17T07:44:15.000Z</time>
      </trkpt>
      <trkpt lat="49.88413" lon="2.39039">
        <ele>29.9</ele>
        <time>2020-09-17T07:44:24.000Z</time>
      </trkpt>
      <trkpt lat="49.88415" lon="2.39053">
        <ele>28.8</ele>
        <time>2020-09-17T07:44:37.000Z</time>
      </trkpt>
      <trkpt lat="49.88416" lon="2.39068">
        <ele>30.2</ele>
        <time>2020-09-17T07:44:46.000Z</time>
      </trkpt>
      <trkpt lat="49.88417" lon="2.39083">
        <ele>29.6</ele>
        <time>2020-09-17T07:44:55.000Z</time>
      </trkpt>
      <trkpt lat="49.88414" lon="2.39098">
        <ele>30.2</ele>
        <time>2020-09-17T07:45:02.000Z</time>
      </trkpt>
      <trkpt lat="49.88405" lon="2.39103">
        <ele>31.1</ele>
        <time>2020-09-17T07:45:21.000Z</time>
      </trkpt>
      <trkpt lat="49.88405" lon="2.39117">
        <ele>32.6</ele>
        <time>2020-09-17T07:45:42.000Z</time>
      </trkpt>
      <trkpt lat="49.88408" lon="2.39134">
        <ele>34.4</ele>
        <time>2020-09-17T07:45:50.000Z</time>
      </trkpt>
      <trkpt lat="49.88409" lon="2.39148">
        <ele>34.8</ele>
        <time>2020-09-17T07:45:58.000Z</time>
      </trkpt>
      <trkpt lat="49.88415" lon="2.39159">
        <ele>34.7</ele>
        <time>2020-09-17T07:46:08.000Z</time>
      </trkpt>
      <trkpt lat="49.88423" lon="2.39166">
        <ele>34.8</ele>
        <time>2020-09-17T07:46:18.000Z</time>
      </trkpt>
      <trkpt lat="49.88426" lon="2.3918">
        <ele>34.5</ele>
        <time>2020-09-17T07:46:52.000Z</time>
      </trkpt>
      <trkpt lat="49.88435" lon="2.39187">
        <ele>31.5</ele>
        <time>2020-09-17T07:47:17.000Z</time>
      </trkpt>
      <trkpt lat="49.88444" lon="2.3919">
        <ele>29.8</ele>
        <time>2020-09-17T07:47:27.000Z</time>
      </trkpt>
      <trkpt lat="49.88453" lon="2.39193">
        <ele>29.7</ele>
        <time>2020-09-17T07:47:38.000Z</time>
      </trkpt>
      <trkpt lat="49.88463" lon="2.39192">
        <ele>29.9</ele>
        <time>2020-09-17T07:47:45.000Z</time>
      </trkpt>
      <trkpt lat="49.88472" lon="2.39192">
        <ele>29.9</ele>
        <time>2020-09-17T07:47:55.000Z</time>
      </trkpt>
      <trkpt lat="49.88482" lon="2.3919">
        <ele>29.9</ele>
        <time>2020-09-17T07:48:06.000Z</time>
      </trkpt>
      <trkpt lat="49.88491" lon="2.39186">
        <ele>30.6</ele>
        <time>2020-09-17T07:48:13.000Z</time>
      </trkpt>
      <trkpt lat="49.88502" lon="2.39186">
        <ele>31.5</ele>
        <time>2020-09-17T07:48:22.000Z</time>
      </trkpt>
      <trkpt lat="49.88498" lon="2.39173">
        <ele>31.4</ele>
        <time>2020-09-17T07:49:06.000Z</time>
      </trkpt>
      <trkpt lat="49.885" lon="2.39187">
        <ele>31.2</ele>
        <time>2020-09-17T07:50:21.000Z</time>
      </trkpt>
      <trkpt lat="49.88499" lon="2.39201">
        <ele>30.4</ele>
        <time>2020-09-17T07:50:29.000Z</time>
      </trkpt>
      <trkpt lat="49.88501" lon="2.39215">
        <ele>31.1</ele>
        <time>2020-09-17T07:50:37.000Z</time>
      </trkpt>
      <trkpt lat="49.88501" lon="2.39231">
        <ele>31.1</ele>
        <time>2020-09-17T07:50:44.000Z</time>
      </trkpt>
      <trkpt lat="49.88501" lon="2.39247">
        <ele>30.7</ele>
        <time>2020-09-17T07:50:51.000Z</time>
      </trkpt>
      <trkpt lat="49.885" lon="2.39262">
        <ele>30.6</ele>
        <time>2020-09-17T07:50:59.000Z</time>
      </trkpt>
      <trkpt lat="49.885" lon="2.39277">
        <ele>31.2</ele>
        <time>2020-09-17T07:51:07.000Z</time>
      </trkpt>
      <trkpt lat="49.885" lon="2.39293">
        <ele>31.1</ele>
        <time>2020-09-17T07:51:16.000Z</time>
      </trkpt>
      <trkpt lat="49.88498" lon="2.39306">
        <ele>31</ele>
        <time>2020-09-17T07:51:23.000Z</time>
      </trkpt>
      <trkpt lat="49.88497" lon="2.3932">
        <ele>30.7</ele>
        <time>2020-09-17T07:51:30.000Z</time>
      </trkpt>
      <trkpt lat="49.88498" lon="2.39335">
        <ele>31</ele>
        <time>2020-09-17T07:51:37.000Z</time>
      </trkpt>
      <trkpt lat="49.88499" lon="2.3935">
        <ele>31.4</ele>
        <time>2020-09-17T07:51:45.000Z</time>
      </trkpt>
      <trkpt lat="49.885" lon="2.39365">
        <ele>31.5</ele>
        <time>2020-09-17T07:51:52.000Z</time>
      </trkpt>
      <trkpt lat="49.88499" lon="2.39379">
        <ele>30.9</ele>
        <time>2020-09-17T07:51:59.000Z</time>
      </trkpt>
      <trkpt lat="49.885" lon="2.39393">
        <ele>31.5</ele>
        <time>2020-09-17T07:52:07.000Z</time>
      </trkpt>
      <trkpt lat="49.88501" lon="2.39408">
        <ele>31.6</ele>
        <time>2020-09-17T07:52:14.000Z</time>
      </trkpt>
      <trkpt lat="49.88502" lon="2.39422">
        <ele>31.4</ele>
        <time>2020-09-17T07:52:21.000Z</time>
      </trkpt>
      <trkpt lat="49.885" lon="2.39437">
        <ele>31.3</ele>
        <time>2020-09-17T07:52:28.000Z</time>
      </trkpt>
      <trkpt lat="49.88498" lon="2.39451">
        <ele>31.2</ele>
        <time>2020-09-17T07:52:35.000Z</time>
      </trkpt>
      <trkpt lat="49.88498" lon="2.39466">
        <ele>30.6</ele>
        <time>2020-09-17T07:52:42.000Z</time>
      </trkpt>
      <trkpt lat="49.88498" lon="2.39482">
        <ele>30.7</ele>
        <time>2020-09-17T07:52:49.000Z</time>
      </trkpt>
      <trkpt lat="49.88497" lon="2.39497">
        <ele>31</ele>
        <time>2020-09-17T07:52:55.000Z</time>
      </trkpt>
      <trkpt lat="49.885" lon="2.39511">
        <ele>31</ele>
        <time>2020-09-17T07:53:02.000Z</time>
      </trkpt>
      <trkpt lat="49.88503" lon="2.39525">
        <ele>31.2</ele>
        <time>2020-09-17T07:53:09.000Z</time>
      </trkpt>
      <trkpt lat="49.88507" lon="2.39539">
        <ele>31.2</ele>
        <time>2020-09-17T07:53:16.000Z</time>
      </trkpt>
      <trkpt lat="49.88508" lon="2.39553">
        <ele>31.1</ele>
        <time>2020-09-17T07:53:23.000Z</time>
      </trkpt>
      <trkpt lat="49.88503" lon="2.39569">
        <ele>30.8</ele>
        <time>2020-09-17T07:53:32.000Z</time>
      </trkpt>
      <trkpt lat="49.88507" lon="2.39582">
        <ele>30.7</ele>
        <time>2020-09-17T07:53:43.000Z</time>
      </trkpt>
      <trkpt lat="49.88504" lon="2.39596">
        <ele>30.4</ele>
        <time>2020-09-17T07:53:49.000Z</time>
      </trkpt>
      <trkpt lat="49.88505" lon="2.3961">
        <ele>30.8</ele>
        <time>2020-09-17T07:53:57.000Z</time>
      </trkpt>
      <trkpt lat="49.88507" lon="2.39624">
        <ele>31.1</ele>
        <time>2020-09-17T07:54:05.000Z</time>
      </trkpt>
      <trkpt lat="49.8851" lon="2.39638">
        <ele>31</ele>
        <time>2020-09-17T07:54:12.000Z</time>
      </trkpt>
      <trkpt lat="49.88513" lon="2.39651">
        <ele>30.7</ele>
        <time>2020-09-17T07:54:20.000Z</time>
      </trkpt>
      <trkpt lat="49.88516" lon="2.39664">
        <ele>31.3</ele>
        <time>2020-09-17T07:54:27.000Z</time>
      </trkpt>
      <trkpt lat="49.88519" lon="2.39679">
        <ele>31.6</ele>
        <time>2020-09-17T07:54:34.000Z</time>
      </trkpt>
      <trkpt lat="49.88521" lon="2.39693">
        <ele>31.6</ele>
        <time>2020-09-17T07:54:40.000Z</time>
      </trkpt>
      <trkpt lat="49.88524" lon="2.39707">
        <ele>31.5</ele>
        <time>2020-09-17T07:54:47.000Z</time>
      </trkpt>
      <trkpt lat="49.88525" lon="2.39723">
        <ele>32.9</ele>
        <time>2020-09-17T07:54:55.000Z</time>
      </trkpt>
      <trkpt lat="49.8853" lon="2.39735">
        <ele>33.6</ele>
        <time>2020-09-17T07:55:02.000Z</time>
      </trkpt>
      <trkpt lat="49.88532" lon="2.3975">
        <ele>33.6</ele>
        <time>2020-09-17T07:55:09.000Z</time>
      </trkpt>
      <trkpt lat="49.88532" lon="2.39766">
        <ele>33.3</ele>
        <time>2020-09-17T07:55:16.000Z</time>
      </trkpt>
      <trkpt lat="49.88533" lon="2.3978">
        <ele>33.7</ele>
        <time>2020-09-17T07:55:23.000Z</time>
      </trkpt>
      <trkpt lat="49.88534" lon="2.39795">
        <ele>33.5</ele>
        <time>2020-09-17T07:55:31.000Z</time>
      </trkpt>
      <trkpt lat="49.88538" lon="2.39808">
        <ele>33.5</ele>
        <time>2020-09-17T07:55:38.000Z</time>
      </trkpt>
      <trkpt lat="49.8854" lon="2.39823">
        <ele>32.8</ele>
        <time>2020-09-17T07:55:45.000Z</time>
      </trkpt>
      <trkpt lat="49.8854" lon="2.39837">
        <ele>32.4</ele>
        <time>2020-09-17T07:55:53.000Z</time>
      </trkpt>
      <trkpt lat="49.88539" lon="2.39852">
        <ele>33.5</ele>
        <time>2020-09-17T07:56:00.000Z</time>
      </trkpt>
      <trkpt lat="49.88539" lon="2.39868">
        <ele>33</ele>
        <time>2020-09-17T07:56:06.000Z</time>
      </trkpt>
      <trkpt lat="49.8854" lon="2.39883">
        <ele>33.1</ele>
        <time>2020-09-17T07:56:14.000Z</time>
      </trkpt>
      <trkpt lat="49.8854" lon="2.39898">
        <ele>32.9</ele>
        <time>2020-09-17T07:56:22.000Z</time>
      </trkpt>
      <trkpt lat="49.88543" lon="2.39914">
        <ele>33.2</ele>
        <time>2020-09-17T07:56:30.000Z</time>
      </trkpt>
      <trkpt lat="49.88544" lon="2.39929">
        <ele>33.5</ele>
        <time>2020-09-17T07:56:38.000Z</time>
      </trkpt>
      <trkpt lat="49.88545" lon="2.39944">
        <ele>33.7</ele>
        <time>2020-09-17T07:56:45.000Z</time>
      </trkpt>
      <trkpt lat="49.88547" lon="2.39958">
        <ele>33.6</ele>
        <time>2020-09-17T07:56:52.000Z</time>
      </trkpt>
      <trkpt lat="49.88547" lon="2.39972">
        <ele>33.7</ele>
        <time>2020-09-17T07:56:59.000Z</time>
      </trkpt>
      <trkpt lat="49.88547" lon="2.39988">
        <ele>33.3</ele>
        <time>2020-09-17T07:57:07.000Z</time>
      </trkpt>
      <trkpt lat="49.88549" lon="2.40002">
        <ele>33.9</ele>
        <time>2020-09-17T07:57:15.000Z</time>
      </trkpt>
      <trkpt lat="49.8855" lon="2.40017">
        <ele>33.9</ele>
        <time>2020-09-17T07:57:21.000Z</time>
      </trkpt>
      <trkpt lat="49.88551" lon="2.40032">
        <ele>34.1</ele>
        <time>2020-09-17T07:57:29.000Z</time>
      </trkpt>
      <trkpt lat="49.88553" lon="2.40048">
        <ele>34</ele>
        <time>2020-09-17T07:57:37.000Z</time>
      </trkpt>
      <trkpt lat="49.88555" lon="2.40063">
        <ele>34</ele>
        <time>2020-09-17T07:57:44.000Z</time>
      </trkpt>
      <trkpt lat="49.88557" lon="2.40077">
        <ele>34.2</ele>
        <time>2020-09-17T07:57:51.000Z</time>
      </trkpt>
      <trkpt lat="49.88557" lon="2.40091">
        <ele>34.5</ele>
        <time>2020-09-17T07:57:57.000Z</time>
      </trkpt>
      <trkpt lat="49.88557" lon="2.40105">
        <ele>34.1</ele>
        <time>2020-09-17T07:58:04.000Z</time>
      </trkpt>
      <trkpt lat="49.8856" lon="2.4012">
        <ele>34.1</ele>
        <time>2020-09-17T07:58:12.000Z</time>
      </trkpt>
      <trkpt lat="49.8856" lon="2.40136">
        <ele>34.1</ele>
        <time>2020-09-17T07:58:20.000Z</time>
      </trkpt>
      <trkpt lat="49.88561" lon="2.4015">
        <ele>34</ele>
        <time>2020-09-17T07:58:26.000Z</time>
      </trkpt>
      <trkpt lat="49.88563" lon="2.40164">
        <ele>33.7</ele>
        <time>2020-09-17T07:58:34.000Z</time>
      </trkpt>
      <trkpt lat="49.88565" lon="2.40178">
        <ele>33.9</ele>
        <time>2020-09-17T07:58:41.000Z</time>
      </trkpt>
      <trkpt lat="49.88568" lon="2.40193">
        <ele>33.7</ele>
        <time>2020-09-17T07:58:49.000Z</time>
      </trkpt>
      <trkpt lat="49.88568" lon="2.40208">
        <ele>34</ele>
        <time>2020-09-17T07:58:56.000Z</time>
      </trkpt>
      <trkpt lat="49.88569" lon="2.40223">
        <ele>34.7</ele>
        <time>2020-09-17T07:59:03.000Z</time>
      </trkpt>
      <trkpt lat="49.88569" lon="2.40237">
        <ele>34.9</ele>
        <time>2020-09-17T07:59:10.000Z</time>
      </trkpt>
      <trkpt lat="49.88569" lon="2.40252">
        <ele>35</ele>
        <time>2020-09-17T07:59:17.000Z</time>
      </trkpt>
      <trkpt lat="49.88569" lon="2.40266">
        <ele>34.9</ele>
        <time>2020-09-17T07:59:24.000Z</time>
      </trkpt>
      <trkpt lat="49.8857" lon="2.4028">
        <ele>34.9</ele>
        <time>2020-09-17T07:59:31.000Z</time>
      </trkpt>
      <trkpt lat="49.88571" lon="2.40294">
        <ele>34.9</ele>
        <time>2020-09-17T07:59:38.000Z</time>
      </trkpt>
      <trkpt lat="49.88574" lon="2.40309">
        <ele>35.2</ele>
        <time>2020-09-17T07:59:45.000Z</time>
      </trkpt>
      <trkpt lat="49.88575" lon="2.40323">
        <ele>35.2</ele>
        <time>2020-09-17T07:59:52.000Z</time>
      </trkpt>
      <trkpt lat="49.88576" lon="2.40337">
        <ele>34.9</ele>
        <time>2020-09-17T07:59:58.000Z</time>
      </trkpt>
      <trkpt lat="49.88576" lon="2.40353">
        <ele>35.1</ele>
        <time>2020-09-17T08:00:06.000Z</time>
      </trkpt>
      <trkpt lat="49.88577" lon="2.40368">
        <ele>35.1</ele>
        <time>2020-09-17T08:00:13.000Z</time>
      </trkpt>
      <trkpt lat="49.88579" lon="2.40381">
        <ele>34.9</ele>
        <time>2020-09-17T08:00:21.000Z</time>
      </trkpt>
      <trkpt lat="49.88579" lon="2.40396">
        <ele>35.1</ele>
        <time>2020-09-17T08:00:28.000Z</time>
      </trkpt>
      <trkpt lat="49.88579" lon="2.4041">
        <ele>34.8</ele>
        <time>2020-09-17T08:00:34.000Z</time>
      </trkpt>
      <trkpt lat="49.88579" lon="2.40425">
        <ele>34.8</ele>
        <time>2020-09-17T08:00:41.000Z</time>
      </trkpt>
      <trkpt lat="49.88579" lon="2.4044">
        <ele>34.3</ele>
        <time>2020-09-17T08:00:48.000Z</time>
      </trkpt>
      <trkpt lat="49.88577" lon="2.40455">
        <ele>34.5</ele>
        <time>2020-09-17T08:00:54.000Z</time>
      </trkpt>
      <trkpt lat="49.88576" lon="2.4047">
        <ele>34.8</ele>
        <time>2020-09-17T08:01:01.000Z</time>
      </trkpt>
      <trkpt lat="49.88576" lon="2.40485">
        <ele>35.1</ele>
        <time>2020-09-17T08:01:09.000Z</time>
      </trkpt>
      <trkpt lat="49.88575" lon="2.40499">
        <ele>35.2</ele>
        <time>2020-09-17T08:01:16.000Z</time>
      </trkpt>
      <trkpt lat="49.88576" lon="2.40514">
        <ele>34.9</ele>
        <time>2020-09-17T08:01:25.000Z</time>
      </trkpt>
      <trkpt lat="49.88576" lon="2.40528">
        <ele>35.2</ele>
        <time>2020-09-17T08:01:34.000Z</time>
      </trkpt>
      <trkpt lat="49.8858" lon="2.40541">
        <ele>34.9</ele>
        <time>2020-09-17T08:01:43.000Z</time>
      </trkpt>
      <trkpt lat="49.88583" lon="2.40555">
        <ele>34.9</ele>
        <time>2020-09-17T08:01:52.000Z</time>
      </trkpt>
      <trkpt lat="49.88586" lon="2.40568">
        <ele>35.2</ele>
        <time>2020-09-17T08:02:00.000Z</time>
      </trkpt>
      <trkpt lat="49.88589" lon="2.40582">
        <ele>35.2</ele>
        <time>2020-09-17T08:02:07.000Z</time>
      </trkpt>
      <trkpt lat="49.88591" lon="2.40596">
        <ele>36</ele>
        <time>2020-09-17T08:02:16.000Z</time>
      </trkpt>
      <trkpt lat="49.88593" lon="2.40612">
        <ele>36.2</ele>
        <time>2020-09-17T08:02:24.000Z</time>
      </trkpt>
      <trkpt lat="49.88593" lon="2.40626">
        <ele>36.1</ele>
        <time>2020-09-17T08:02:31.000Z</time>
      </trkpt>
      <trkpt lat="49.88595" lon="2.40642">
        <ele>36.4</ele>
        <time>2020-09-17T08:02:39.000Z</time>
      </trkpt>
      <trkpt lat="49.88592" lon="2.40657">
        <ele>36.7</ele>
        <time>2020-09-17T08:02:46.000Z</time>
      </trkpt>
      <trkpt lat="49.88593" lon="2.40672">
        <ele>37.1</ele>
        <time>2020-09-17T08:02:53.000Z</time>
      </trkpt>
      <trkpt lat="49.88593" lon="2.40687">
        <ele>37.2</ele>
        <time>2020-09-17T08:03:01.000Z</time>
      </trkpt>
      <trkpt lat="49.88591" lon="2.40703">
        <ele>37.4</ele>
        <time>2020-09-17T08:03:09.000Z</time>
      </trkpt>
      <trkpt lat="49.88589" lon="2.40718">
        <ele>37.3</ele>
        <time>2020-09-17T08:03:17.000Z</time>
      </trkpt>
      <trkpt lat="49.88589" lon="2.40734">
        <ele>37</ele>
        <time>2020-09-17T08:03:25.000Z</time>
      </trkpt>
      <trkpt lat="49.88587" lon="2.40749">
        <ele>36.7</ele>
        <time>2020-09-17T08:03:32.000Z</time>
      </trkpt>
      <trkpt lat="49.88587" lon="2.40764">
        <ele>36.5</ele>
        <time>2020-09-17T08:03:39.000Z</time>
      </trkpt>
      <trkpt lat="49.88584" lon="2.40779">
        <ele>36.2</ele>
        <time>2020-09-17T08:03:47.000Z</time>
      </trkpt>
      <trkpt lat="49.88583" lon="2.40794">
        <ele>36</ele>
        <time>2020-09-17T08:03:56.000Z</time>
      </trkpt>
      <trkpt lat="49.88583" lon="2.40808">
        <ele>36.3</ele>
        <time>2020-09-17T08:04:04.000Z</time>
      </trkpt>
      <trkpt lat="49.88581" lon="2.40824">
        <ele>36.1</ele>
        <time>2020-09-17T08:04:12.000Z</time>
      </trkpt>
      <trkpt lat="49.8858" lon="2.40838">
        <ele>36.4</ele>
        <time>2020-09-17T08:04:21.000Z</time>
      </trkpt>
      <trkpt lat="49.88581" lon="2.40851">
        <ele>36.2</ele>
        <time>2020-09-17T08:04:29.000Z</time>
      </trkpt>
      <trkpt lat="49.88582" lon="2.40866">
        <ele>36.1</ele>
        <time>2020-09-17T08:04:37.000Z</time>
      </trkpt>
      <trkpt lat="49.88581" lon="2.40881">
        <ele>36.1</ele>
        <time>2020-09-17T08:04:46.000Z</time>
      </trkpt>
      <trkpt lat="49.88581" lon="2.40896">
        <ele>36.7</ele>
        <time>2020-09-17T08:05:01.000Z</time>
      </trkpt>
      <trkpt lat="49.88581" lon="2.4091">
        <ele>36.9</ele>
        <time>2020-09-17T08:05:32.000Z</time>
      </trkpt>
      <trkpt lat="49.8858" lon="2.40924">
        <ele>37.2</ele>
        <time>2020-09-17T08:06:07.000Z</time>
      </trkpt>
      <trkpt lat="49.88581" lon="2.40938">
        <ele>36.8</ele>
        <time>2020-09-17T08:06:32.000Z</time>
      </trkpt>
      <trkpt lat="49.88572" lon="2.40941">
        <ele>35.3</ele>
        <time>2020-09-17T08:06:47.000Z</time>
      </trkpt>
      <trkpt lat="49.88564" lon="2.40935">
        <ele>32.2</ele>
        <time>2020-09-17T08:07:01.000Z</time>
      </trkpt>
      <trkpt lat="49.88555" lon="2.40933">
        <ele>30.5</ele>
        <time>2020-09-17T08:07:34.000Z</time>
      </trkpt>
      <trkpt lat="49.88549" lon="2.40922">
        <ele>30.5</ele>
        <time>2020-09-17T08:07:43.000Z</time>
      </trkpt>
      <trkpt lat="49.88541" lon="2.40914">
        <ele>30.1</ele>
        <time>2020-09-17T08:08:44.000Z</time>
      </trkpt>
      <trkpt lat="49.88543" lon="2.409">
        <ele>30.1</ele>
        <time>2020-09-17T08:08:53.000Z</time>
      </trkpt>
      <trkpt lat="49.88543" lon="2.40886">
        <ele>30.3</ele>
        <time>2020-09-17T08:09:02.000Z</time>
      </trkpt>
      <trkpt lat="49.88543" lon="2.40871">
        <ele>30.2</ele>
        <time>2020-09-17T08:09:12.000Z</time>
      </trkpt>
      <trkpt lat="49.88534" lon="2.4087">
        <ele>30.3</ele>
        <time>2020-09-17T08:09:24.000Z</time>
      </trkpt>
      <trkpt lat="49.88527" lon="2.40881">
        <ele>29.8</ele>
        <time>2020-09-17T08:09:46.000Z</time>
      </trkpt>
      <trkpt lat="49.88527" lon="2.40866">
        <ele>27.7</ele>
        <time>2020-09-17T08:11:55.000Z</time>
      </trkpt>
      <trkpt lat="49.88526" lon="2.40851">
        <ele>28.7</ele>
        <time>2020-09-17T08:12:05.000Z</time>
      </trkpt>
      <trkpt lat="49.88524" lon="2.40836">
        <ele>28.5</ele>
        <time>2020-09-17T08:12:17.000Z</time>
      </trkpt>
      <trkpt lat="49.88524" lon="2.40822">
        <ele>26.8</ele>
        <time>2020-09-17T08:12:29.000Z</time>
      </trkpt>
      <trkpt lat="49.88524" lon="2.40807">
        <ele>28.8</ele>
        <time>2020-09-17T08:12:39.000Z</time>
      </trkpt>
      <trkpt lat="49.88523" lon="2.40792">
        <ele>27.8</ele>
        <time>2020-09-17T08:12:49.000Z</time>
      </trkpt>
      <trkpt lat="49.8852" lon="2.40777">
        <ele>29.4</ele>
        <time>2020-09-17T08:12:59.000Z</time>
      </trkpt>
      <trkpt lat="49.88521" lon="2.40762">
        <ele>29.7</ele>
        <time>2020-09-17T08:13:09.000Z</time>
      </trkpt>
      <trkpt lat="49.88521" lon="2.40748">
        <ele>27.1</ele>
        <time>2020-09-17T08:13:18.000Z</time>
      </trkpt>
      <trkpt lat="49.88518" lon="2.40734">
        <ele>28.6</ele>
        <time>2020-09-17T08:13:27.000Z</time>
      </trkpt>
      <trkpt lat="49.88516" lon="2.4072">
        <ele>29.1</ele>
        <time>2020-09-17T08:13:35.000Z</time>
      </trkpt>
      <trkpt lat="49.88514" lon="2.40705">
        <ele>28.3</ele>
        <time>2020-09-17T08:13:43.000Z</time>
      </trkpt>
      <trkpt lat="49.88511" lon="2.40691">
        <ele>28.9</ele>
        <time>2020-09-17T08:13:49.000Z</time>
      </trkpt>
      <trkpt lat="49.88506" lon="2.40678">
        <ele>27.4</ele>
        <time>2020-09-17T08:13:57.000Z</time>
      </trkpt>
      <trkpt lat="49.88505" lon="2.40664">
        <ele>28.5</ele>
        <time>2020-09-17T08:14:04.000Z</time>
      </trkpt>
      <trkpt lat="49.88506" lon="2.40649">
        <ele>26.9</ele>
        <time>2020-09-17T08:14:12.000Z</time>
      </trkpt>
      <trkpt lat="49.88503" lon="2.40633">
        <ele>28.9</ele>
        <time>2020-09-17T08:14:19.000Z</time>
      </trkpt>
      <trkpt lat="49.88502" lon="2.40618">
        <ele>28.6</ele>
        <time>2020-09-17T08:14:26.000Z</time>
      </trkpt>
      <trkpt lat="49.88502" lon="2.40604">
        <ele>26.3</ele>
        <time>2020-09-17T08:14:35.000Z</time>
      </trkpt>
      <trkpt lat="49.88501" lon="2.40589">
        <ele>29.5</ele>
        <time>2020-09-17T08:14:43.000Z</time>
      </trkpt>
      <trkpt lat="49.885" lon="2.40575">
        <ele>27.6</ele>
        <time>2020-09-17T08:14:49.000Z</time>
      </trkpt>
      <trkpt lat="49.88498" lon="2.4056">
        <ele>28.9</ele>
        <time>2020-09-17T08:14:55.000Z</time>
      </trkpt>
      <trkpt lat="49.88497" lon="2.40546">
        <ele>28</ele>
        <time>2020-09-17T08:15:03.000Z</time>
      </trkpt>
      <trkpt lat="49.88495" lon="2.40532">
        <ele>27.6</ele>
        <time>2020-09-17T08:15:10.000Z</time>
      </trkpt>
      <trkpt lat="49.88494" lon="2.40518">
        <ele>29.3</ele>
        <time>2020-09-17T08:15:17.000Z</time>
      </trkpt>
      <trkpt lat="49.88493" lon="2.40503">
        <ele>29</ele>
        <time>2020-09-17T08:15:23.000Z</time>
      </trkpt>
      <trkpt lat="49.88495" lon="2.40488">
        <ele>27.9</ele>
        <time>2020-09-17T08:15:31.000Z</time>
      </trkpt>
      <trkpt lat="49.88495" lon="2.40473">
        <ele>29.4</ele>
        <time>2020-09-17T08:15:39.000Z</time>
      </trkpt>
      <trkpt lat="49.88492" lon="2.40458">
        <ele>29.1</ele>
        <time>2020-09-17T08:15:47.000Z</time>
      </trkpt>
      <trkpt lat="49.88491" lon="2.40444">
        <ele>28.5</ele>
        <time>2020-09-17T08:15:53.000Z</time>
      </trkpt>
      <trkpt lat="49.8849" lon="2.40428">
        <ele>29.2</ele>
        <time>2020-09-17T08:16:00.000Z</time>
      </trkpt>
      <trkpt lat="49.8849" lon="2.40414">
        <ele>25.8</ele>
        <time>2020-09-17T08:16:08.000Z</time>
      </trkpt>
      <trkpt lat="49.88486" lon="2.40401">
        <ele>27.6</ele>
        <time>2020-09-17T08:16:16.000Z</time>
      </trkpt>
      <trkpt lat="49.88482" lon="2.40388">
        <ele>28</ele>
        <time>2020-09-17T08:16:23.000Z</time>
      </trkpt>
      <trkpt lat="49.88481" lon="2.40373">
        <ele>25.5</ele>
        <time>2020-09-17T08:16:29.000Z</time>
      </trkpt>
      <trkpt lat="49.88483" lon="2.40358">
        <ele>27.5</ele>
        <time>2020-09-17T08:16:35.000Z</time>
      </trkpt>
      <trkpt lat="49.88483" lon="2.40344">
        <ele>23.9</ele>
        <time>2020-09-17T08:16:43.000Z</time>
      </trkpt>
      <trkpt lat="49.88484" lon="2.4033">
        <ele>26.4</ele>
        <time>2020-09-17T08:16:51.000Z</time>
      </trkpt>
      <trkpt lat="49.88482" lon="2.40316">
        <ele>29.3</ele>
        <time>2020-09-17T08:16:58.000Z</time>
      </trkpt>
      <trkpt lat="49.8848" lon="2.40301">
        <ele>26.6</ele>
        <time>2020-09-17T08:17:05.000Z</time>
      </trkpt>
      <trkpt lat="49.8848" lon="2.40286">
        <ele>28.6</ele>
        <time>2020-09-17T08:17:11.000Z</time>
      </trkpt>
      <trkpt lat="49.88478" lon="2.40272">
        <ele>28.3</ele>
        <time>2020-09-17T08:17:20.000Z</time>
      </trkpt>
      <trkpt lat="49.88478" lon="2.40256">
        <ele>29.2</ele>
        <time>2020-09-17T08:17:28.000Z</time>
      </trkpt>
      <trkpt lat="49.88477" lon="2.40242">
        <ele>29.5</ele>
        <time>2020-09-17T08:17:34.000Z</time>
      </trkpt>
      <trkpt lat="49.88475" lon="2.40227">
        <ele>29.8</ele>
        <time>2020-09-17T08:17:40.000Z</time>
      </trkpt>
      <trkpt lat="49.88474" lon="2.40212">
        <ele>26.2</ele>
        <time>2020-09-17T08:17:47.000Z</time>
      </trkpt>
      <trkpt lat="49.88473" lon="2.40198">
        <ele>28.5</ele>
        <time>2020-09-17T08:17:55.000Z</time>
      </trkpt>
      <trkpt lat="49.88469" lon="2.40184">
        <ele>28.6</ele>
        <time>2020-09-17T08:18:02.000Z</time>
      </trkpt>
      <trkpt lat="49.88467" lon="2.40169">
        <ele>26.2</ele>
        <time>2020-09-17T08:18:08.000Z</time>
      </trkpt>
      <trkpt lat="49.88468" lon="2.40154">
        <ele>25.8</ele>
        <time>2020-09-17T08:18:16.000Z</time>
      </trkpt>
      <trkpt lat="49.88466" lon="2.40139">
        <ele>27.6</ele>
        <time>2020-09-17T08:18:27.000Z</time>
      </trkpt>
      <trkpt lat="49.88466" lon="2.40125">
        <ele>25.9</ele>
        <time>2020-09-17T08:18:33.000Z</time>
      </trkpt>
      <trkpt lat="49.88467" lon="2.40109">
        <ele>27.9</ele>
        <time>2020-09-17T08:18:39.000Z</time>
      </trkpt>
      <trkpt lat="49.88464" lon="2.40094">
        <ele>26.8</ele>
        <time>2020-09-17T08:18:49.000Z</time>
      </trkpt>
      <trkpt lat="49.88464" lon="2.40078">
        <ele>26.9</ele>
        <time>2020-09-17T08:18:56.000Z</time>
      </trkpt>
      <trkpt lat="49.88464" lon="2.40062">
        <ele>28</ele>
        <time>2020-09-17T08:19:04.000Z</time>
      </trkpt>
      <trkpt lat="49.88462" lon="2.40046">
        <ele>26.1</ele>
        <time>2020-09-17T08:19:12.000Z</time>
      </trkpt>
      <trkpt lat="49.88459" lon="2.4003">
        <ele>28.7</ele>
        <time>2020-09-17T08:19:19.000Z</time>
      </trkpt>
      <trkpt lat="49.88458" lon="2.40016">
        <ele>28.5</ele>
        <time>2020-09-17T08:19:26.000Z</time>
      </trkpt>
      <trkpt lat="49.88457" lon="2.4">
        <ele>29.4</ele>
        <time>2020-09-17T08:19:33.000Z</time>
      </trkpt>
      <trkpt lat="49.88455" lon="2.39985">
        <ele>28.8</ele>
        <time>2020-09-17T08:19:41.000Z</time>
      </trkpt>
      <trkpt lat="49.88456" lon="2.3997">
        <ele>27.6</ele>
        <time>2020-09-17T08:19:49.000Z</time>
      </trkpt>
      <trkpt lat="49.88456" lon="2.39956">
        <ele>29.3</ele>
        <time>2020-09-17T08:19:58.000Z</time>
      </trkpt>
      <trkpt lat="49.88454" lon="2.3994">
        <ele>29</ele>
        <time>2020-09-17T08:20:05.000Z</time>
      </trkpt>
      <trkpt lat="49.88452" lon="2.39926">
        <ele>29.2</ele>
        <time>2020-09-17T08:20:12.000Z</time>
      </trkpt>
      <trkpt lat="49.8845" lon="2.39911">
        <ele>27.9</ele>
        <time>2020-09-17T08:20:19.000Z</time>
      </trkpt>
      <trkpt lat="49.88448" lon="2.39896">
        <ele>27.2</ele>
        <time>2020-09-17T08:20:26.000Z</time>
      </trkpt>
      <trkpt lat="49.88446" lon="2.39881">
        <ele>26.7</ele>
        <time>2020-09-17T08:20:33.000Z</time>
      </trkpt>
      <trkpt lat="49.88446" lon="2.39865">
        <ele>26.3</ele>
        <time>2020-09-17T08:20:43.000Z</time>
      </trkpt>
      <trkpt lat="49.88444" lon="2.39852">
        <ele>26.2</ele>
        <time>2020-09-17T08:20:50.000Z</time>
      </trkpt>
      <trkpt lat="49.88443" lon="2.39837">
        <ele>25.1</ele>
        <time>2020-09-17T08:20:57.000Z</time>
      </trkpt>
      <trkpt lat="49.88444" lon="2.39822">
        <ele>26.8</ele>
        <time>2020-09-17T08:21:04.000Z</time>
      </trkpt>
      <trkpt lat="49.88443" lon="2.39807">
        <ele>29.5</ele>
        <time>2020-09-17T08:21:11.000Z</time>
      </trkpt>
      <trkpt lat="49.88442" lon="2.39791">
        <ele>25.6</ele>
        <time>2020-09-17T08:21:19.000Z</time>
      </trkpt>
      <trkpt lat="49.88438" lon="2.39778">
        <ele>27.5</ele>
        <time>2020-09-17T08:21:26.000Z</time>
      </trkpt>
      <trkpt lat="49.88437" lon="2.39764">
        <ele>27.8</ele>
        <time>2020-09-17T08:21:33.000Z</time>
      </trkpt>
      <trkpt lat="49.88437" lon="2.39749">
        <ele>29.3</ele>
        <time>2020-09-17T08:21:40.000Z</time>
      </trkpt>
      <trkpt lat="49.88428" lon="2.39743">
        <ele>24.8</ele>
        <time>2020-09-17T08:21:52.000Z</time>
      </trkpt>
      <trkpt lat="49.88419" lon="2.39745">
        <ele>25.9</ele>
        <time>2020-09-17T08:22:08.000Z</time>
      </trkpt>
      <trkpt lat="49.88409" lon="2.39745">
        <ele>26.9</ele>
        <time>2020-09-17T08:22:15.000Z</time>
      </trkpt>
      <trkpt lat="49.88398" lon="2.39742">
        <ele>30.6</ele>
        <time>2020-09-17T08:22:23.000Z</time>
      </trkpt>
      <trkpt lat="49.88389" lon="2.39739">
        <ele>26.4</ele>
        <time>2020-09-17T08:22:30.000Z</time>
      </trkpt>
      <trkpt lat="49.88379" lon="2.39735">
        <ele>26.9</ele>
        <time>2020-09-17T08:22:37.000Z</time>
      </trkpt>
      <trkpt lat="49.88369" lon="2.39733">
        <ele>30</ele>
        <time>2020-09-17T08:22:45.000Z</time>
      </trkpt>
      <trkpt lat="49.8836" lon="2.39733">
        <ele>25.4</ele>
        <time>2020-09-17T08:22:52.000Z</time>
      </trkpt>
      <trkpt lat="49.8835" lon="2.39733">
        <ele>21.3</ele>
        <time>2020-09-17T08:22:58.000Z</time>
      </trkpt>
      <trkpt lat="49.8834" lon="2.39733">
        <ele>26.6</ele>
        <time>2020-09-17T08:23:05.000Z</time>
      </trkpt>
      <trkpt lat="49.8833" lon="2.3973">
        <ele>29.2</ele>
        <time>2020-09-17T08:23:13.000Z</time>
      </trkpt>
      <trkpt lat="49.88321" lon="2.39728">
        <ele>27.2</ele>
        <time>2020-09-17T08:23:21.000Z</time>
      </trkpt>
      <trkpt lat="49.88312" lon="2.39726">
        <ele>25.3</ele>
        <time>2020-09-17T08:23:28.000Z</time>
      </trkpt>
      <trkpt lat="49.88302" lon="2.39727">
        <ele>26.3</ele>
        <time>2020-09-17T08:23:34.000Z</time>
      </trkpt>
      <trkpt lat="49.88293" lon="2.39727">
        <ele>27.8</ele>
        <time>2020-09-17T08:23:41.000Z</time>
      </trkpt>
      <trkpt lat="49.88282" lon="2.39725">
        <ele>30.2</ele>
        <time>2020-09-17T08:23:47.000Z</time>
      </trkpt>
      <trkpt lat="49.88273" lon="2.39725">
        <ele>28.2</ele>
        <time>2020-09-17T08:23:54.000Z</time>
      </trkpt>
      <trkpt lat="49.88264" lon="2.39725">
        <ele>25.4</ele>
        <time>2020-09-17T08:24:03.000Z</time>
      </trkpt>
      <trkpt lat="49.88254" lon="2.39725">
        <ele>26.5</ele>
        <time>2020-09-17T08:24:09.000Z</time>
      </trkpt>
      <trkpt lat="49.88245" lon="2.39725">
        <ele>26.8</ele>
        <time>2020-09-17T08:24:15.000Z</time>
      </trkpt>
      <trkpt lat="49.88236" lon="2.39722">
        <ele>29.2</ele>
        <time>2020-09-17T08:24:21.000Z</time>
      </trkpt>
      <trkpt lat="49.88226" lon="2.3972">
        <ele>25.6</ele>
        <time>2020-09-17T08:24:30.000Z</time>
      </trkpt>
      <trkpt lat="49.88216" lon="2.39722">
        <ele>27.3</ele>
        <time>2020-09-17T08:24:37.000Z</time>
      </trkpt>
      <trkpt lat="49.88207" lon="2.39722">
        <ele>30.4</ele>
        <time>2020-09-17T08:24:43.000Z</time>
      </trkpt>
      <trkpt lat="49.88198" lon="2.39721">
        <ele>23.4</ele>
        <time>2020-09-17T08:24:51.000Z</time>
      </trkpt>
      <trkpt lat="49.88188" lon="2.39721">
        <ele>26</ele>
        <time>2020-09-17T08:24:59.000Z</time>
      </trkpt>
      <trkpt lat="49.88179" lon="2.39723">
        <ele>28.9</ele>
        <time>2020-09-17T08:25:05.000Z</time>
      </trkpt>
      <trkpt lat="49.8817" lon="2.39724">
        <ele>24.4</ele>
        <time>2020-09-17T08:25:14.000Z</time>
      </trkpt>
      <trkpt lat="49.8816" lon="2.39722">
        <ele>25.3</ele>
        <time>2020-09-17T08:25:22.000Z</time>
      </trkpt>
      <trkpt lat="49.8815" lon="2.39721">
        <ele>25.7</ele>
        <time>2020-09-17T08:25:29.000Z</time>
      </trkpt>
      <trkpt lat="49.8814" lon="2.39719">
        <ele>27.5</ele>
        <time>2020-09-17T08:25:35.000Z</time>
      </trkpt>
      <trkpt lat="49.8813" lon="2.3972">
        <ele>26.1</ele>
        <time>2020-09-17T08:25:43.000Z</time>
      </trkpt>
      <trkpt lat="49.88122" lon="2.39717">
        <ele>22.4</ele>
        <time>2020-09-17T08:25:50.000Z</time>
      </trkpt>
      <trkpt lat="49.88112" lon="2.39721">
        <ele>22.9</ele>
        <time>2020-09-17T08:26:00.000Z</time>
      </trkpt>
      <trkpt lat="49.88102" lon="2.39721">
        <ele>25.2</ele>
        <time>2020-09-17T08:26:07.000Z</time>
      </trkpt>
      <trkpt lat="49.88093" lon="2.39721">
        <ele>26.9</ele>
        <time>2020-09-17T08:26:14.000Z</time>
      </trkpt>
      <trkpt lat="49.88083" lon="2.39721">
        <ele>29.4</ele>
        <time>2020-09-17T08:26:20.000Z</time>
      </trkpt>
      <trkpt lat="49.88074" lon="2.3972">
        <ele>25.6</ele>
        <time>2020-09-17T08:26:28.000Z</time>
      </trkpt>
      <trkpt lat="49.88064" lon="2.3972">
        <ele>27.5</ele>
        <time>2020-09-17T08:26:36.000Z</time>
      </trkpt>
      <trkpt lat="49.88055" lon="2.39722">
        <ele>26.8</ele>
        <time>2020-09-17T08:26:47.000Z</time>
      </trkpt>
      <trkpt lat="49.88045" lon="2.39723">
        <ele>27.8</ele>
        <time>2020-09-17T08:26:54.000Z</time>
      </trkpt>
      <trkpt lat="49.88036" lon="2.39726">
        <ele>30.3</ele>
        <time>2020-09-17T08:27:01.000Z</time>
      </trkpt>
      <trkpt lat="49.88027" lon="2.39731">
        <ele>26</ele>
        <time>2020-09-17T08:27:09.000Z</time>
      </trkpt>
      <trkpt lat="49.88017" lon="2.39735">
        <ele>28.6</ele>
        <time>2020-09-17T08:27:15.000Z</time>
      </trkpt>
      <trkpt lat="49.88008" lon="2.39735">
        <ele>27.1</ele>
        <time>2020-09-17T08:27:22.000Z</time>
      </trkpt>
      <trkpt lat="49.87999" lon="2.39729">
        <ele>26.7</ele>
        <time>2020-09-17T08:27:32.000Z</time>
      </trkpt>
      <trkpt lat="49.88005" lon="2.39717">
        <ele>28</ele>
        <time>2020-09-17T08:27:48.000Z</time>
      </trkpt>
      <trkpt lat="49.87996" lon="2.39712">
        <ele>27</ele>
        <time>2020-09-17T08:28:11.000Z</time>
      </trkpt>
      <trkpt lat="49.88003" lon="2.39722">
        <ele>27.7</ele>
        <time>2020-09-17T08:29:42.000Z</time>
      </trkpt>
      <trkpt lat="49.87994" lon="2.39727">
        <ele>26.2</ele>
        <time>2020-09-17T08:31:43.000Z</time>
      </trkpt>
      <trkpt lat="49.87987" lon="2.39717">
        <ele>26.9</ele>
        <time>2020-09-17T08:35:37.000Z</time>
      </trkpt>
      <trkpt lat="49.8799" lon="2.3973">
        <ele>29</ele>
        <time>2020-09-17T08:36:37.000Z</time>
      </trkpt>
      <trkpt lat="49.88" lon="2.39733">
        <ele>28.3</ele>
        <time>2020-09-17T08:37:36.000Z</time>
      </trkpt>
      <trkpt lat="49.88006" lon="2.39722">
        <ele>27.7</ele>
        <time>2020-09-17T08:38:05.000Z</time>
      </trkpt>
      <trkpt lat="49.88006" lon="2.39708">
        <ele>26</ele>
        <time>2020-09-17T08:38:15.000Z</time>
      </trkpt>
      <trkpt lat="49.88004" lon="2.39693">
        <ele>29</ele>
        <time>2020-09-17T08:38:23.000Z</time>
      </trkpt>
      <trkpt lat="49.87999" lon="2.39682">
        <ele>25.9</ele>
        <time>2020-09-17T08:38:32.000Z</time>
      </trkpt>
      <trkpt lat="49.87996" lon="2.39668">
        <ele>27.7</ele>
        <time>2020-09-17T08:38:39.000Z</time>
      </trkpt>
      <trkpt lat="49.87994" lon="2.39654">
        <ele>28</ele>
        <time>2020-09-17T08:38:49.000Z</time>
      </trkpt>
      <trkpt lat="49.87993" lon="2.3964">
        <ele>28.3</ele>
        <time>2020-09-17T08:39:00.000Z</time>
      </trkpt>
      <trkpt lat="49.87992" lon="2.39624">
        <ele>30.9</ele>
        <time>2020-09-17T08:39:08.000Z</time>
      </trkpt>
      <trkpt lat="49.87987" lon="2.3961">
        <ele>23.2</ele>
        <time>2020-09-17T08:39:16.000Z</time>
      </trkpt>
      <trkpt lat="49.87986" lon="2.39596">
        <ele>25.8</ele>
        <time>2020-09-17T08:39:25.000Z</time>
      </trkpt>
      <trkpt lat="49.87989" lon="2.39583">
        <ele>28.8</ele>
        <time>2020-09-17T08:39:34.000Z</time>
      </trkpt>
      <trkpt lat="49.87991" lon="2.39569">
        <ele>19.7</ele>
        <time>2020-09-17T08:39:43.000Z</time>
      </trkpt>
      <trkpt lat="49.8799" lon="2.39554">
        <ele>22.9</ele>
        <time>2020-09-17T08:39:49.000Z</time>
      </trkpt>
      <trkpt lat="49.87988" lon="2.39539">
        <ele>26.2</ele>
        <time>2020-09-17T08:39:55.000Z</time>
      </trkpt>
      <trkpt lat="49.87986" lon="2.39524">
        <ele>27.2</ele>
        <time>2020-09-17T08:40:00.000Z</time>
      </trkpt>
      <trkpt lat="49.87988" lon="2.3951">
        <ele>27.8</ele>
        <time>2020-09-17T08:40:06.000Z</time>
      </trkpt>
      <trkpt lat="49.87992" lon="2.39497">
        <ele>26.1</ele>
        <time>2020-09-17T08:40:15.000Z</time>
      </trkpt>
      <trkpt lat="49.87996" lon="2.39483">
        <ele>25.8</ele>
        <time>2020-09-17T08:40:21.000Z</time>
      </trkpt>
      <trkpt lat="49.87994" lon="2.39469">
        <ele>27</ele>
        <time>2020-09-17T08:40:27.000Z</time>
      </trkpt>
      <trkpt lat="49.8799" lon="2.39455">
        <ele>27.9</ele>
        <time>2020-09-17T08:40:33.000Z</time>
      </trkpt>
      <trkpt lat="49.8799" lon="2.3944">
        <ele>29.1</ele>
        <time>2020-09-17T08:40:41.000Z</time>
      </trkpt>
      <trkpt lat="49.8799" lon="2.39426">
        <ele>21.6</ele>
        <time>2020-09-17T08:40:49.000Z</time>
      </trkpt>
      <trkpt lat="49.87988" lon="2.39411">
        <ele>24.4</ele>
        <time>2020-09-17T08:40:58.000Z</time>
      </trkpt>
      <trkpt lat="49.87988" lon="2.39395">
        <ele>26</ele>
        <time>2020-09-17T08:41:05.000Z</time>
      </trkpt>
      <trkpt lat="49.87991" lon="2.39381">
        <ele>26</ele>
        <time>2020-09-17T08:41:11.000Z</time>
      </trkpt>
      <trkpt lat="49.8799" lon="2.39366">
        <ele>26.7</ele>
        <time>2020-09-17T08:41:19.000Z</time>
      </trkpt>
      <trkpt lat="49.87989" lon="2.39351">
        <ele>20.4</ele>
        <time>2020-09-17T08:41:28.000Z</time>
      </trkpt>
      <trkpt lat="49.87992" lon="2.39335">
        <ele>22.9</ele>
        <time>2020-09-17T08:41:36.000Z</time>
      </trkpt>
      <trkpt lat="49.87991" lon="2.3932">
        <ele>26.7</ele>
        <time>2020-09-17T08:41:42.000Z</time>
      </trkpt>
      <trkpt lat="49.87986" lon="2.39307">
        <ele>25.6</ele>
        <time>2020-09-17T08:41:49.000Z</time>
      </trkpt>
      <trkpt lat="49.87986" lon="2.39291">
        <ele>26</ele>
        <time>2020-09-17T08:41:57.000Z</time>
      </trkpt>
      <trkpt lat="49.87986" lon="2.39277">
        <ele>27</ele>
        <time>2020-09-17T08:42:03.000Z</time>
      </trkpt>
      <trkpt lat="49.87989" lon="2.39262">
        <ele>29.2</ele>
        <time>2020-09-17T08:42:10.000Z</time>
      </trkpt>
      <trkpt lat="49.87995" lon="2.3925">
        <ele>23.4</ele>
        <time>2020-09-17T08:42:16.000Z</time>
      </trkpt>
      <trkpt lat="49.87993" lon="2.39235">
        <ele>22.5</ele>
        <time>2020-09-17T08:42:22.000Z</time>
      </trkpt>
      <trkpt lat="49.87993" lon="2.3922">
        <ele>25.8</ele>
        <time>2020-09-17T08:42:29.000Z</time>
      </trkpt>
      <trkpt lat="49.87993" lon="2.39206">
        <ele>28.8</ele>
        <time>2020-09-17T08:42:36.000Z</time>
      </trkpt>
      <trkpt lat="49.87998" lon="2.39194">
        <ele>23.6</ele>
        <time>2020-09-17T08:42:44.000Z</time>
      </trkpt>
      <trkpt lat="49.88002" lon="2.39181">
        <ele>19.4</ele>
        <time>2020-09-17T08:42:51.000Z</time>
      </trkpt>
      <trkpt lat="49.88004" lon="2.39166">
        <ele>26.8</ele>
        <time>2020-09-17T08:43:00.000Z</time>
      </trkpt>
      <trkpt lat="49.8801" lon="2.39155">
        <ele>26.6</ele>
        <time>2020-09-17T08:43:08.000Z</time>
      </trkpt>
      <trkpt lat="49.88015" lon="2.39142">
        <ele>29.2</ele>
        <time>2020-09-17T08:43:15.000Z</time>
      </trkpt>
      <trkpt lat="49.88018" lon="2.39127">
        <ele>25.8</ele>
        <time>2020-09-17T08:43:25.000Z</time>
      </trkpt>
      <trkpt lat="49.8802" lon="2.39113">
        <ele>26.3</ele>
        <time>2020-09-17T08:43:34.000Z</time>
      </trkpt>
      <trkpt lat="49.88025" lon="2.391">
        <ele>29</ele>
        <time>2020-09-17T08:43:43.000Z</time>
      </trkpt>
      <trkpt lat="49.88028" lon="2.39087">
        <ele>26.6</ele>
        <time>2020-09-17T08:43:55.000Z</time>
      </trkpt>
      <trkpt lat="49.8803" lon="2.39073">
        <ele>28.9</ele>
        <time>2020-09-17T08:44:02.000Z</time>
      </trkpt>
      <trkpt lat="49.88029" lon="2.39059">
        <ele>25.9</ele>
        <time>2020-09-17T08:44:10.000Z</time>
      </trkpt>
      <trkpt lat="49.88028" lon="2.39045">
        <ele>26.5</ele>
        <time>2020-09-17T08:44:16.000Z</time>
      </trkpt>
      <trkpt lat="49.88029" lon="2.39031">
        <ele>26.8</ele>
        <time>2020-09-17T08:44:23.000Z</time>
      </trkpt>
      <trkpt lat="49.88027" lon="2.39017">
        <ele>27.7</ele>
        <time>2020-09-17T08:44:28.000Z</time>
      </trkpt>
      <trkpt lat="49.88028" lon="2.39002">
        <ele>23.2</ele>
        <time>2020-09-17T08:44:38.000Z</time>
      </trkpt>
      <trkpt lat="49.88032" lon="2.38989">
        <ele>25.6</ele>
        <time>2020-09-17T08:44:45.000Z</time>
      </trkpt>
      <trkpt lat="49.88037" lon="2.38976">
        <ele>26.8</ele>
        <time>2020-09-17T08:44:52.000Z</time>
      </trkpt>
      <trkpt lat="49.88042" lon="2.38963">
        <ele>28.7</ele>
        <time>2020-09-17T08:45:00.000Z</time>
      </trkpt>
      <trkpt lat="49.88048" lon="2.3895">
        <ele>24.5</ele>
        <time>2020-09-17T08:45:09.000Z</time>
      </trkpt>
      <trkpt lat="49.88053" lon="2.38936">
        <ele>25.3</ele>
        <time>2020-09-17T08:45:16.000Z</time>
      </trkpt>
      <trkpt lat="49.88054" lon="2.38921">
        <ele>27.7</ele>
        <time>2020-09-17T08:45:23.000Z</time>
      </trkpt>
      <trkpt lat="49.88054" lon="2.38906">
        <ele>26</ele>
        <time>2020-09-17T08:45:31.000Z</time>
      </trkpt>
      <trkpt lat="49.8806" lon="2.38894">
        <ele>25.3</ele>
        <time>2020-09-17T08:45:39.000Z</time>
      </trkpt>
      <trkpt lat="49.88065" lon="2.3888">
        <ele>27.1</ele>
        <time>2020-09-17T08:45:44.000Z</time>
      </trkpt>
      <trkpt lat="49.88071" lon="2.38867">
        <ele>29.5</ele>
        <time>2020-09-17T08:45:50.000Z</time>
      </trkpt>
      <trkpt lat="49.88075" lon="2.38853">
        <ele>25.6</ele>
        <time>2020-09-17T08:45:58.000Z</time>
      </trkpt>
      <trkpt lat="49.88079" lon="2.38839">
        <ele>26</ele>
        <time>2020-09-17T08:46:05.000Z</time>
      </trkpt>
      <trkpt lat="49.88081" lon="2.38825">
        <ele>28.1</ele>
        <time>2020-09-17T08:46:14.000Z</time>
      </trkpt>
      <trkpt lat="49.88085" lon="2.38812">
        <ele>30.1</ele>
        <time>2020-09-17T08:46:22.000Z</time>
      </trkpt>
      <trkpt lat="49.88091" lon="2.388">
        <ele>22.5</ele>
        <time>2020-09-17T08:46:28.000Z</time>
      </trkpt>
      <trkpt lat="49.88096" lon="2.38787">
        <ele>24.5</ele>
        <time>2020-09-17T08:46:33.000Z</time>
      </trkpt>
      <trkpt lat="49.88098" lon="2.38771">
        <ele>27.5</ele>
        <time>2020-09-17T08:46:42.000Z</time>
      </trkpt>
      <trkpt lat="49.88101" lon="2.38756">
        <ele>23.3</ele>
        <time>2020-09-17T08:46:51.000Z</time>
      </trkpt>
      <trkpt lat="49.88104" lon="2.38743">
        <ele>24.3</ele>
        <time>2020-09-17T08:46:58.000Z</time>
      </trkpt>
      <trkpt lat="49.88107" lon="2.38729">
        <ele>26.6</ele>
        <time>2020-09-17T08:47:03.000Z</time>
      </trkpt>
      <trkpt lat="49.88114" lon="2.38719">
        <ele>28.2</ele>
        <time>2020-09-17T08:47:09.000Z</time>
      </trkpt>
      <trkpt lat="49.88116" lon="2.38705">
        <ele>29.9</ele>
        <time>2020-09-17T08:47:18.000Z</time>
      </trkpt>
      <trkpt lat="49.88115" lon="2.38689">
        <ele>24.3</ele>
        <time>2020-09-17T08:47:29.000Z</time>
      </trkpt>
      <trkpt lat="49.88116" lon="2.38675">
        <ele>26.9</ele>
        <time>2020-09-17T08:47:35.000Z</time>
      </trkpt>
      <trkpt lat="49.88117" lon="2.3866">
        <ele>29.2</ele>
        <time>2020-09-17T08:47:41.000Z</time>
      </trkpt>
      <trkpt lat="49.88119" lon="2.38646">
        <ele>24</ele>
        <time>2020-09-17T08:47:50.000Z</time>
      </trkpt>
      <trkpt lat="49.88124" lon="2.38635">
        <ele>22.6</ele>
        <time>2020-09-17T08:47:55.000Z</time>
      </trkpt>
      <trkpt lat="49.88125" lon="2.38621">
        <ele>26.6</ele>
        <time>2020-09-17T08:48:01.000Z</time>
      </trkpt>
      <trkpt lat="49.88129" lon="2.38608">
        <ele>28.4</ele>
        <time>2020-09-17T08:48:10.000Z</time>
      </trkpt>
      <trkpt lat="49.88136" lon="2.38598">
        <ele>30.2</ele>
        <time>2020-09-17T08:48:17.000Z</time>
      </trkpt>
      <trkpt lat="49.88144" lon="2.38589">
        <ele>24.8</ele>
        <time>2020-09-17T08:48:24.000Z</time>
      </trkpt>
      <trkpt lat="49.88153" lon="2.38582">
        <ele>24</ele>
        <time>2020-09-17T08:48:33.000Z</time>
      </trkpt>
      <trkpt lat="49.88161" lon="2.38575">
        <ele>26.7</ele>
        <time>2020-09-17T08:48:38.000Z</time>
      </trkpt>
      <trkpt lat="49.88168" lon="2.38566">
        <ele>27.8</ele>
        <time>2020-09-17T08:48:44.000Z</time>
      </trkpt>
      <trkpt lat="49.88175" lon="2.38555">
        <ele>29.3</ele>
        <time>2020-09-17T08:48:52.000Z</time>
      </trkpt>
      <trkpt lat="49.88179" lon="2.38542">
        <ele>23.5</ele>
        <time>2020-09-17T08:49:03.000Z</time>
      </trkpt>
      <trkpt lat="49.88185" lon="2.38529">
        <ele>25.9</ele>
        <time>2020-09-17T08:49:09.000Z</time>
      </trkpt>
      <trkpt lat="49.88189" lon="2.38514">
        <ele>27.3</ele>
        <time>2020-09-17T08:49:15.000Z</time>
      </trkpt>
      <trkpt lat="49.88199" lon="2.38504">
        <ele>29.3</ele>
        <time>2020-09-17T08:49:21.000Z</time>
      </trkpt>
      <trkpt lat="49.88208" lon="2.38502">
        <ele>22.5</ele>
        <time>2020-09-17T08:49:29.000Z</time>
      </trkpt>
      <trkpt lat="49.88216" lon="2.38507">
        <ele>25.4</ele>
        <time>2020-09-17T08:49:35.000Z</time>
      </trkpt>
      <trkpt lat="49.88226" lon="2.38511">
        <ele>27.2</ele>
        <time>2020-09-17T08:49:40.000Z</time>
      </trkpt>
      <trkpt lat="49.88231" lon="2.38523">
        <ele>28.8</ele>
        <time>2020-09-17T08:49:46.000Z</time>
      </trkpt>
      <trkpt lat="49.88237" lon="2.38533">
        <ele>25.6</ele>
        <time>2020-09-17T08:49:52.000Z</time>
      </trkpt>
      <trkpt lat="49.88242" lon="2.38545">
        <ele>19.9</ele>
        <time>2020-09-17T08:49:59.000Z</time>
      </trkpt>
      <trkpt lat="49.88244" lon="2.38559">
        <ele>24.6</ele>
        <time>2020-09-17T08:50:06.000Z</time>
      </trkpt>
      <trkpt lat="49.88246" lon="2.38574">
        <ele>29</ele>
        <time>2020-09-17T08:50:15.000Z</time>
      </trkpt>
      <trkpt lat="49.88248" lon="2.38588">
        <ele>28.5</ele>
        <time>2020-09-17T08:50:22.000Z</time>
      </trkpt>
      <trkpt lat="49.88251" lon="2.38601">
        <ele>19.8</ele>
        <time>2020-09-17T08:50:29.000Z</time>
      </trkpt>
      <trkpt lat="49.88249" lon="2.38616">
        <ele>23.3</ele>
        <time>2020-09-17T08:50:35.000Z</time>
      </trkpt>
      <trkpt lat="49.88252" lon="2.3863">
        <ele>26.8</ele>
        <time>2020-09-17T08:50:41.000Z</time>
      </trkpt>
      <trkpt lat="49.88256" lon="2.38645">
        <ele>27.9</ele>
        <time>2020-09-17T08:50:47.000Z</time>
      </trkpt>
      <trkpt lat="49.8826" lon="2.38658">
        <ele>27.6</ele>
        <time>2020-09-17T08:50:54.000Z</time>
      </trkpt>
      <trkpt lat="49.88262" lon="2.38673">
        <ele>20.5</ele>
        <time>2020-09-17T08:51:02.000Z</time>
      </trkpt>
      <trkpt lat="49.88263" lon="2.38688">
        <ele>18.6</ele>
        <time>2020-09-17T08:51:11.000Z</time>
      </trkpt>
      <trkpt lat="49.88267" lon="2.38701">
        <ele>20.1</ele>
        <time>2020-09-17T08:51:18.000Z</time>
      </trkpt>
      <trkpt lat="49.8827" lon="2.38715">
        <ele>25.4</ele>
        <time>2020-09-17T08:51:24.000Z</time>
      </trkpt>
      <trkpt lat="49.8827" lon="2.38729">
        <ele>27.9</ele>
        <time>2020-09-17T08:51:31.000Z</time>
      </trkpt>
      <trkpt lat="49.88273" lon="2.38744">
        <ele>30</ele>
        <time>2020-09-17T08:51:37.000Z</time>
      </trkpt>
      <trkpt lat="49.88275" lon="2.38759">
        <ele>20.6</ele>
        <time>2020-09-17T08:51:46.000Z</time>
      </trkpt>
      <trkpt lat="49.88277" lon="2.38775">
        <ele>26.3</ele>
        <time>2020-09-17T08:51:53.000Z</time>
      </trkpt>
      <trkpt lat="49.88283" lon="2.38786">
        <ele>28.9</ele>
        <time>2020-09-17T08:51:59.000Z</time>
      </trkpt>
      <trkpt lat="49.88286" lon="2.388">
        <ele>26</ele>
        <time>2020-09-17T08:52:08.000Z</time>
      </trkpt>
      <trkpt lat="49.88284" lon="2.38814">
        <ele>25.9</ele>
        <time>2020-09-17T08:52:14.000Z</time>
      </trkpt>
      <trkpt lat="49.88287" lon="2.38828">
        <ele>26.5</ele>
        <time>2020-09-17T08:52:22.000Z</time>
      </trkpt>
      <trkpt lat="49.88292" lon="2.38841">
        <ele>29</ele>
        <time>2020-09-17T08:52:28.000Z</time>
      </trkpt>
      <trkpt lat="49.88293" lon="2.38855">
        <ele>22.4</ele>
        <time>2020-09-17T08:52:37.000Z</time>
      </trkpt>
      <trkpt lat="49.8829" lon="2.38869">
        <ele>26</ele>
        <time>2020-09-17T08:52:43.000Z</time>
      </trkpt>
      <trkpt lat="49.88295" lon="2.38883">
        <ele>28</ele>
        <time>2020-09-17T08:52:49.000Z</time>
      </trkpt>
      <trkpt lat="49.88298" lon="2.38896">
        <ele>24.7</ele>
        <time>2020-09-17T08:52:56.000Z</time>
      </trkpt>
      <trkpt lat="49.88301" lon="2.3891">
        <ele>21.4</ele>
        <time>2020-09-17T08:53:04.000Z</time>
      </trkpt>
      <trkpt lat="49.88308" lon="2.38922">
        <ele>26.4</ele>
        <time>2020-09-17T08:53:11.000Z</time>
      </trkpt>
      <trkpt lat="49.88315" lon="2.38932">
        <ele>27.4</ele>
        <time>2020-09-17T08:53:17.000Z</time>
      </trkpt>
      <trkpt lat="49.8832" lon="2.38944">
        <ele>30</ele>
        <time>2020-09-17T08:53:23.000Z</time>
      </trkpt>
      <trkpt lat="49.88323" lon="2.38958">
        <ele>30.5</ele>
        <time>2020-09-17T08:53:30.000Z</time>
      </trkpt>
      <trkpt lat="49.88327" lon="2.38972">
        <ele>20.1</ele>
        <time>2020-09-17T08:53:38.000Z</time>
      </trkpt>
      <trkpt lat="49.88331" lon="2.38986">
        <ele>23.9</ele>
        <time>2020-09-17T08:53:46.000Z</time>
      </trkpt>
      <trkpt lat="49.88337" lon="2.39">
        <ele>26.4</ele>
        <time>2020-09-17T08:53:52.000Z</time>
      </trkpt>
      <trkpt lat="49.88339" lon="2.39015">
        <ele>29</ele>
        <time>2020-09-17T08:54:00.000Z</time>
      </trkpt>
      <trkpt lat="49.88339" lon="2.39031">
        <ele>28.7</ele>
        <time>2020-09-17T08:54:08.000Z</time>
      </trkpt>
      <trkpt lat="49.88335" lon="2.39044">
        <ele>19.6</ele>
        <time>2020-09-17T08:54:15.000Z</time>
      </trkpt>
      <trkpt lat="49.88332" lon="2.39057">
        <ele>25.1</ele>
        <time>2020-09-17T08:54:21.000Z</time>
      </trkpt>
      <trkpt lat="49.88327" lon="2.39071">
        <ele>27.4</ele>
        <time>2020-09-17T08:54:28.000Z</time>
      </trkpt>
      <trkpt lat="49.88326" lon="2.39085">
        <ele>28.1</ele>
        <time>2020-09-17T08:54:34.000Z</time>
      </trkpt>
      <trkpt lat="49.88325" lon="2.39101">
        <ele>28.1</ele>
        <time>2020-09-17T08:54:41.000Z</time>
      </trkpt>
      <trkpt lat="49.88323" lon="2.39116">
        <ele>24</ele>
        <time>2020-09-17T08:54:49.000Z</time>
      </trkpt>
      <trkpt lat="49.88322" lon="2.39132">
        <ele>19.2</ele>
        <time>2020-09-17T08:54:58.000Z</time>
      </trkpt>
      <trkpt lat="49.88323" lon="2.39146">
        <ele>22.5</ele>
        <time>2020-09-17T08:55:04.000Z</time>
      </trkpt>
      <trkpt lat="49.88323" lon="2.39161">
        <ele>25.9</ele>
        <time>2020-09-17T08:55:11.000Z</time>
      </trkpt>
      <trkpt lat="49.88326" lon="2.39176">
        <ele>27.5</ele>
        <time>2020-09-17T08:55:18.000Z</time>
      </trkpt>
      <trkpt lat="49.88327" lon="2.39191">
        <ele>27</ele>
        <time>2020-09-17T08:55:25.000Z</time>
      </trkpt>
      <trkpt lat="49.88327" lon="2.39206">
        <ele>19.9</ele>
        <time>2020-09-17T08:55:34.000Z</time>
      </trkpt>
      <trkpt lat="49.88329" lon="2.3922">
        <ele>25.4</ele>
        <time>2020-09-17T08:55:41.000Z</time>
      </trkpt>
      <trkpt lat="49.8833" lon="2.39235">
        <ele>24.9</ele>
        <time>2020-09-17T08:55:49.000Z</time>
      </trkpt>
      <trkpt lat="49.88322" lon="2.39245">
        <ele>22.4</ele>
        <time>2020-09-17T08:55:58.000Z</time>
      </trkpt>
      <trkpt lat="49.88324" lon="2.39259">
        <ele>27.7</ele>
        <time>2020-09-17T08:56:05.000Z</time>
      </trkpt>
      <trkpt lat="49.8833" lon="2.39273">
        <ele>25.4</ele>
        <time>2020-09-17T08:56:11.000Z</time>
      </trkpt>
      <trkpt lat="49.88339" lon="2.39278">
        <ele>27.8</ele>
        <time>2020-09-17T08:56:18.000Z</time>
      </trkpt>
      <trkpt lat="49.88349" lon="2.39277">
        <ele>29.1</ele>
        <time>2020-09-17T08:56:25.000Z</time>
      </trkpt>
      <trkpt lat="49.88359" lon="2.39275">
        <ele>28.9</ele>
        <time>2020-09-17T08:56:31.000Z</time>
      </trkpt>
      <trkpt lat="49.88364" lon="2.39261">
        <ele>23</ele>
        <time>2020-09-17T08:56:37.000Z</time>
      </trkpt>
      <trkpt lat="49.88363" lon="2.39246">
        <ele>25</ele>
        <time>2020-09-17T08:56:45.000Z</time>
      </trkpt>
      <trkpt lat="49.88365" lon="2.39232">
        <ele>26.7</ele>
        <time>2020-09-17T08:56:51.000Z</time>
      </trkpt>
      <trkpt lat="49.88369" lon="2.39218">
        <ele>28.7</ele>
        <time>2020-09-17T08:56:59.000Z</time>
      </trkpt>
      <trkpt lat="49.88373" lon="2.39204">
        <ele>30.3</ele>
        <time>2020-09-17T08:57:07.000Z</time>
      </trkpt>
      <trkpt lat="49.88381" lon="2.39197">
        <ele>21.9</ele>
        <time>2020-09-17T08:57:13.000Z</time>
      </trkpt>
      <trkpt lat="49.88388" lon="2.39185">
        <ele>21.2</ele>
        <time>2020-09-17T08:57:19.000Z</time>
      </trkpt>
      <trkpt lat="49.88395" lon="2.39175">
        <ele>26.4</ele>
        <time>2020-09-17T08:57:27.000Z</time>
      </trkpt>
      <trkpt lat="49.88401" lon="2.39163">
        <ele>28</ele>
        <time>2020-09-17T08:57:33.000Z</time>
      </trkpt>
      <trkpt lat="49.88409" lon="2.39155">
        <ele>23</ele>
        <time>2020-09-17T08:57:45.000Z</time>
      </trkpt>
      <trkpt lat="49.88414" lon="2.3914">
        <ele>24.7</ele>
        <time>2020-09-17T08:57:53.000Z</time>
      </trkpt>
      <trkpt lat="49.8842" lon="2.39126">
        <ele>26.6</ele>
        <time>2020-09-17T08:57:57.000Z</time>
      </trkpt>
      <trkpt lat="49.88422" lon="2.3911">
        <ele>26.9</ele>
        <time>2020-09-17T08:58:00.000Z</time>
      </trkpt>
      <trkpt lat="49.88419" lon="2.39095">
        <ele>27.1</ele>
        <time>2020-09-17T08:58:05.000Z</time>
      </trkpt>
      <trkpt lat="49.88415" lon="2.39082">
        <ele>28.6</ele>
        <time>2020-09-17T08:58:13.000Z</time>
      </trkpt>
      <trkpt lat="49.88412" lon="2.39068">
        <ele>27.3</ele>
        <time>2020-09-17T08:58:30.000Z</time>
      </trkpt>
      <trkpt lat="49.88402" lon="2.39067">
        <ele>27.4</ele>
        <time>2020-09-17T08:59:05.000Z</time>
      </trkpt>
      <trkpt lat="49.88403" lon="2.39052">
        <ele>26.9</ele>
        <time>2020-09-17T09:00:06.000Z</time>
      </trkpt>
      <trkpt lat="49.884" lon="2.39037">
        <ele>25</ele>
        <time>2020-09-17T09:00:16.000Z</time>
      </trkpt>
      <trkpt lat="49.88398" lon="2.39022">
        <ele>26.7</ele>
        <time>2020-09-17T09:00:23.000Z</time>
      </trkpt>
      <trkpt lat="49.8839" lon="2.39014">
        <ele>29.6</ele>
        <time>2020-09-17T09:00:32.000Z</time>
      </trkpt>
      <trkpt lat="49.88388" lon="2.38998">
        <ele>29.3</ele>
        <time>2020-09-17T09:00:39.000Z</time>
      </trkpt>
      <trkpt lat="49.88385" lon="2.38985">
        <ele>31.8</ele>
        <time>2020-09-17T09:00:46.000Z</time>
      </trkpt>
      <trkpt lat="49.88381" lon="2.38971">
        <ele>32</ele>
        <time>2020-09-17T09:00:53.000Z</time>
      </trkpt>
      <trkpt lat="49.88376" lon="2.38958">
        <ele>31.6</ele>
        <time>2020-09-17T09:01:00.000Z</time>
      </trkpt>
      <trkpt lat="49.88372" lon="2.38945">
        <ele>29.4</ele>
        <time>2020-09-17T09:01:09.000Z</time>
      </trkpt>
      <trkpt lat="49.88371" lon="2.38929">
        <ele>30.2</ele>
        <time>2020-09-17T09:01:19.000Z</time>
      </trkpt>
      <trkpt lat="49.88367" lon="2.38914">
        <ele>30.7</ele>
        <time>2020-09-17T09:01:27.000Z</time>
      </trkpt>
      <trkpt lat="49.88365" lon="2.389">
        <ele>31.8</ele>
        <time>2020-09-17T09:01:34.000Z</time>
      </trkpt>
      <trkpt lat="49.88362" lon="2.38886">
        <ele>30.8</ele>
        <time>2020-09-17T09:01:41.000Z</time>
      </trkpt>
      <trkpt lat="49.88358" lon="2.38873">
        <ele>31.7</ele>
        <time>2020-09-17T09:01:47.000Z</time>
      </trkpt>
      <trkpt lat="49.88353" lon="2.3886">
        <ele>31.8</ele>
        <time>2020-09-17T09:01:54.000Z</time>
      </trkpt>
      <trkpt lat="49.88349" lon="2.38847">
        <ele>29.6</ele>
        <time>2020-09-17T09:02:00.000Z</time>
      </trkpt>
      <trkpt lat="49.88347" lon="2.38829">
        <ele>30.9</ele>
        <time>2020-09-17T09:02:07.000Z</time>
      </trkpt>
      <trkpt lat="49.88345" lon="2.38815">
        <ele>27.7</ele>
        <time>2020-09-17T09:02:15.000Z</time>
      </trkpt>
      <trkpt lat="49.8834" lon="2.38802">
        <ele>30.3</ele>
        <time>2020-09-17T09:02:21.000Z</time>
      </trkpt>
      <trkpt lat="49.88335" lon="2.38791">
        <ele>29.5</ele>
        <time>2020-09-17T09:02:27.000Z</time>
      </trkpt>
      <trkpt lat="49.88332" lon="2.38778">
        <ele>28.9</ele>
        <time>2020-09-17T09:02:34.000Z</time>
      </trkpt>
      <trkpt lat="49.88331" lon="2.38762">
        <ele>28.8</ele>
        <time>2020-09-17T09:02:39.000Z</time>
      </trkpt>
      <trkpt lat="49.88329" lon="2.38748">
        <ele>28.5</ele>
        <time>2020-09-17T09:02:45.000Z</time>
      </trkpt>
      <trkpt lat="49.88324" lon="2.38736">
        <ele>29.9</ele>
        <time>2020-09-17T09:02:51.000Z</time>
      </trkpt>
      <trkpt lat="49.88321" lon="2.38722">
        <ele>29.2</ele>
        <time>2020-09-17T09:02:59.000Z</time>
      </trkpt>
      <trkpt lat="49.88316" lon="2.38709">
        <ele>21.2</ele>
        <time>2020-09-17T09:03:08.000Z</time>
      </trkpt>
      <trkpt lat="49.88312" lon="2.38694">
        <ele>23.4</ele>
        <time>2020-09-17T09:03:15.000Z</time>
      </trkpt>
      <trkpt lat="49.88311" lon="2.3868">
        <ele>25.9</ele>
        <time>2020-09-17T09:03:20.000Z</time>
      </trkpt>
      <trkpt lat="49.88308" lon="2.38666">
        <ele>27</ele>
        <time>2020-09-17T09:03:27.000Z</time>
      </trkpt>
      <trkpt lat="49.88307" lon="2.38652">
        <ele>26.9</ele>
        <time>2020-09-17T09:03:33.000Z</time>
      </trkpt>
      <trkpt lat="49.88305" lon="2.38636">
        <ele>27.1</ele>
        <time>2020-09-17T09:03:40.000Z</time>
      </trkpt>
      <trkpt lat="49.88303" lon="2.38622">
        <ele>26.4</ele>
        <time>2020-09-17T09:03:48.000Z</time>
      </trkpt>
      <trkpt lat="49.88302" lon="2.38607">
        <ele>22.4</ele>
        <time>2020-09-17T09:03:56.000Z</time>
      </trkpt>
      <trkpt lat="49.883" lon="2.38593">
        <ele>25.3</ele>
        <time>2020-09-17T09:04:02.000Z</time>
      </trkpt>
      <trkpt lat="49.88297" lon="2.38579">
        <ele>26.8</ele>
        <time>2020-09-17T09:04:08.000Z</time>
      </trkpt>
      <trkpt lat="49.88293" lon="2.38566">
        <ele>29</ele>
        <time>2020-09-17T09:04:14.000Z</time>
      </trkpt>
      <trkpt lat="49.88288" lon="2.38553">
        <ele>31.1</ele>
        <time>2020-09-17T09:04:21.000Z</time>
      </trkpt>
      <trkpt lat="49.88287" lon="2.38537">
        <ele>29.6</ele>
        <time>2020-09-17T09:04:29.000Z</time>
      </trkpt>
      <trkpt lat="49.88285" lon="2.38523">
        <ele>30.8</ele>
        <time>2020-09-17T09:04:36.000Z</time>
      </trkpt>
      <trkpt lat="49.88283" lon="2.38509">
        <ele>27.4</ele>
        <time>2020-09-17T09:04:42.000Z</time>
      </trkpt>
      <trkpt lat="49.88279" lon="2.38495">
        <ele>28.5</ele>
        <time>2020-09-17T09:04:50.000Z</time>
      </trkpt>
      <trkpt lat="49.88278" lon="2.3848">
        <ele>30.7</ele>
        <time>2020-09-17T09:04:57.000Z</time>
      </trkpt>
      <trkpt lat="49.88277" lon="2.38466">
        <ele>28</ele>
        <time>2020-09-17T09:05:03.000Z</time>
      </trkpt>
      <trkpt lat="49.88273" lon="2.38453">
        <ele>23</ele>
        <time>2020-09-17T09:05:12.000Z</time>
      </trkpt>
      <trkpt lat="49.8827" lon="2.3844">
        <ele>21.4</ele>
        <time>2020-09-17T09:05:19.000Z</time>
      </trkpt>
      <trkpt lat="49.8827" lon="2.38425">
        <ele>22.5</ele>
        <time>2020-09-17T09:05:25.000Z</time>
      </trkpt>
      <trkpt lat="49.88268" lon="2.38411">
        <ele>24.8</ele>
        <time>2020-09-17T09:05:32.000Z</time>
      </trkpt>
      <trkpt lat="49.88265" lon="2.38398">
        <ele>26.9</ele>
        <time>2020-09-17T09:05:38.000Z</time>
      </trkpt>
      <trkpt lat="49.88262" lon="2.38384">
        <ele>28.2</ele>
        <time>2020-09-17T09:05:44.000Z</time>
      </trkpt>
      <trkpt lat="49.88262" lon="2.38369">
        <ele>28</ele>
        <time>2020-09-17T09:05:50.000Z</time>
      </trkpt>
      <trkpt lat="49.88259" lon="2.38353">
        <ele>27.7</ele>
        <time>2020-09-17T09:05:56.000Z</time>
      </trkpt>
      <trkpt lat="49.88259" lon="2.38337">
        <ele>26.5</ele>
        <time>2020-09-17T09:06:02.000Z</time>
      </trkpt>
      <trkpt lat="49.88257" lon="2.38322">
        <ele>27.1</ele>
        <time>2020-09-17T09:06:09.000Z</time>
      </trkpt>
      <trkpt lat="49.88256" lon="2.38307">
        <ele>23</ele>
        <time>2020-09-17T09:06:17.000Z</time>
      </trkpt>
      <trkpt lat="49.88254" lon="2.38292">
        <ele>16.9</ele>
        <time>2020-09-17T09:06:26.000Z</time>
      </trkpt>
      <trkpt lat="49.88253" lon="2.38276">
        <ele>22.2</ele>
        <time>2020-09-17T09:06:35.000Z</time>
      </trkpt>
      <trkpt lat="49.88252" lon="2.38261">
        <ele>20.1</ele>
        <time>2020-09-17T09:06:42.000Z</time>
      </trkpt>
      <trkpt lat="49.8825" lon="2.38245">
        <ele>23</ele>
        <time>2020-09-17T09:06:49.000Z</time>
      </trkpt>
      <trkpt lat="49.8825" lon="2.3823">
        <ele>25.6</ele>
        <time>2020-09-17T09:06:56.000Z</time>
      </trkpt>
      <trkpt lat="49.88249" lon="2.38215">
        <ele>26.5</ele>
        <time>2020-09-17T09:07:04.000Z</time>
      </trkpt>
      <trkpt lat="49.88248" lon="2.38201">
        <ele>26.8</ele>
        <time>2020-09-17T09:07:10.000Z</time>
      </trkpt>
      <trkpt lat="49.88248" lon="2.38187">
        <ele>26.5</ele>
        <time>2020-09-17T09:07:17.000Z</time>
      </trkpt>
      <trkpt lat="49.88247" lon="2.38172">
        <ele>21.6</ele>
        <time>2020-09-17T09:07:24.000Z</time>
      </trkpt>
      <trkpt lat="49.88245" lon="2.38158">
        <ele>20.5</ele>
        <time>2020-09-17T09:07:31.000Z</time>
      </trkpt>
      <trkpt lat="49.88239" lon="2.38145">
        <ele>19.9</ele>
        <time>2020-09-17T09:07:39.000Z</time>
      </trkpt>
      <trkpt lat="49.8824" lon="2.38129">
        <ele>22.4</ele>
        <time>2020-09-17T09:07:46.000Z</time>
      </trkpt>
      <trkpt lat="49.88241" lon="2.38115">
        <ele>25.2</ele>
        <time>2020-09-17T09:07:53.000Z</time>
      </trkpt>
      <trkpt lat="49.88241" lon="2.38099">
        <ele>23.8</ele>
        <time>2020-09-17T09:07:59.000Z</time>
      </trkpt>
      <trkpt lat="49.88243" lon="2.38084">
        <ele>17.4</ele>
        <time>2020-09-17T09:08:06.000Z</time>
      </trkpt>
      <trkpt lat="49.88242" lon="2.38068">
        <ele>15.9</ele>
        <time>2020-09-17T09:08:14.000Z</time>
      </trkpt>
      <trkpt lat="49.88241" lon="2.38054">
        <ele>18.2</ele>
        <time>2020-09-17T09:08:21.000Z</time>
      </trkpt>
      <trkpt lat="49.88242" lon="2.38038">
        <ele>17.1</ele>
        <time>2020-09-17T09:08:28.000Z</time>
      </trkpt>
      <trkpt lat="49.88245" lon="2.38022">
        <ele>20.4</ele>
        <time>2020-09-17T09:08:36.000Z</time>
      </trkpt>
      <trkpt lat="49.88245" lon="2.38007">
        <ele>26</ele>
        <time>2020-09-17T09:08:42.000Z</time>
      </trkpt>
      <trkpt lat="49.88244" lon="2.37991">
        <ele>27.6</ele>
        <time>2020-09-17T09:08:49.000Z</time>
      </trkpt>
      <trkpt lat="49.88246" lon="2.37975">
        <ele>27.8</ele>
        <time>2020-09-17T09:08:56.000Z</time>
      </trkpt>
      <trkpt lat="49.88248" lon="2.37959">
        <ele>27.8</ele>
        <time>2020-09-17T09:09:04.000Z</time>
      </trkpt>
      <trkpt lat="49.88249" lon="2.37943">
        <ele>25.7</ele>
        <time>2020-09-17T09:09:11.000Z</time>
      </trkpt>
      <trkpt lat="49.88248" lon="2.37927">
        <ele>27.1</ele>
        <time>2020-09-17T09:09:17.000Z</time>
      </trkpt>
      <trkpt lat="49.88248" lon="2.37913">
        <ele>27.3</ele>
        <time>2020-09-17T09:09:23.000Z</time>
      </trkpt>
      <trkpt lat="49.88248" lon="2.37899">
        <ele>26.9</ele>
        <time>2020-09-17T09:09:28.000Z</time>
      </trkpt>
      <trkpt lat="49.88248" lon="2.37884">
        <ele>27.7</ele>
        <time>2020-09-17T09:09:34.000Z</time>
      </trkpt>
      <trkpt lat="49.88248" lon="2.37868">
        <ele>27.9</ele>
        <time>2020-09-17T09:09:41.000Z</time>
      </trkpt>
      <trkpt lat="49.88248" lon="2.37853">
        <ele>30.3</ele>
        <time>2020-09-17T09:09:49.000Z</time>
      </trkpt>
      <trkpt lat="49.88248" lon="2.37838">
        <ele>31.2</ele>
        <time>2020-09-17T09:09:56.000Z</time>
      </trkpt>
      <trkpt lat="49.88249" lon="2.37823">
        <ele>21.5</ele>
        <time>2020-09-17T09:10:03.000Z</time>
      </trkpt>
      <trkpt lat="49.88251" lon="2.37809">
        <ele>19</ele>
        <time>2020-09-17T09:10:10.000Z</time>
      </trkpt>
      <trkpt lat="49.88251" lon="2.37794">
        <ele>16.6</ele>
        <time>2020-09-17T09:10:18.000Z</time>
      </trkpt>
      <trkpt lat="49.88252" lon="2.37778">
        <ele>23.8</ele>
        <time>2020-09-17T09:10:25.000Z</time>
      </trkpt>
      <trkpt lat="49.88254" lon="2.37762">
        <ele>26.1</ele>
        <time>2020-09-17T09:10:31.000Z</time>
      </trkpt>
      <trkpt lat="49.88256" lon="2.37747">
        <ele>26.8</ele>
        <time>2020-09-17T09:10:37.000Z</time>
      </trkpt>
      <trkpt lat="49.88256" lon="2.37732">
        <ele>28.5</ele>
        <time>2020-09-17T09:10:43.000Z</time>
      </trkpt>
      <trkpt lat="49.88258" lon="2.37717">
        <ele>29.5</ele>
        <time>2020-09-17T09:10:49.000Z</time>
      </trkpt>
      <trkpt lat="49.8826" lon="2.37702">
        <ele>30.3</ele>
        <time>2020-09-17T09:10:55.000Z</time>
      </trkpt>
      <trkpt lat="49.88263" lon="2.37687">
        <ele>31.2</ele>
        <time>2020-09-17T09:11:02.000Z</time>
      </trkpt>
      <trkpt lat="49.88262" lon="2.37673">
        <ele>29.9</ele>
        <time>2020-09-17T09:11:08.000Z</time>
      </trkpt>
      <trkpt lat="49.88264" lon="2.37658">
        <ele>31.1</ele>
        <time>2020-09-17T09:11:14.000Z</time>
      </trkpt>
      <trkpt lat="49.88266" lon="2.37644">
        <ele>32</ele>
        <time>2020-09-17T09:11:21.000Z</time>
      </trkpt>
      <trkpt lat="49.88269" lon="2.3763">
        <ele>30.4</ele>
        <time>2020-09-17T09:11:28.000Z</time>
      </trkpt>
      <trkpt lat="49.88272" lon="2.37617">
        <ele>31.8</ele>
        <time>2020-09-17T09:11:34.000Z</time>
      </trkpt>
      <trkpt lat="49.88275" lon="2.37603">
        <ele>31.7</ele>
        <time>2020-09-17T09:11:40.000Z</time>
      </trkpt>
      <trkpt lat="49.88278" lon="2.37588">
        <ele>31.9</ele>
        <time>2020-09-17T09:11:47.000Z</time>
      </trkpt>
      <trkpt lat="49.88281" lon="2.37574">
        <ele>26.1</ele>
        <time>2020-09-17T09:11:55.000Z</time>
      </trkpt>
      <trkpt lat="49.8828" lon="2.37559">
        <ele>23.6</ele>
        <time>2020-09-17T09:12:02.000Z</time>
      </trkpt>
      <trkpt lat="49.88283" lon="2.37545">
        <ele>27.3</ele>
        <time>2020-09-17T09:12:09.000Z</time>
      </trkpt>
      <trkpt lat="49.88286" lon="2.3753">
        <ele>19.6</ele>
        <time>2020-09-17T09:12:16.000Z</time>
      </trkpt>
      <trkpt lat="49.88289" lon="2.37514">
        <ele>19.6</ele>
        <time>2020-09-17T09:12:22.000Z</time>
      </trkpt>
      <trkpt lat="49.88293" lon="2.37499">
        <ele>19.5</ele>
        <time>2020-09-17T09:12:29.000Z</time>
      </trkpt>
      <trkpt lat="49.88293" lon="2.37484">
        <ele>26.1</ele>
        <time>2020-09-17T09:12:36.000Z</time>
      </trkpt>
      <trkpt lat="49.88297" lon="2.37467">
        <ele>27.8</ele>
        <time>2020-09-17T09:12:41.000Z</time>
      </trkpt>
      <trkpt lat="49.88296" lon="2.37453">
        <ele>28.9</ele>
        <time>2020-09-17T09:12:47.000Z</time>
      </trkpt>
      <trkpt lat="49.88301" lon="2.3744">
        <ele>31.3</ele>
        <time>2020-09-17T09:12:53.000Z</time>
      </trkpt>
      <trkpt lat="49.88306" lon="2.37427">
        <ele>31.5</ele>
        <time>2020-09-17T09:12:59.000Z</time>
      </trkpt>
      <trkpt lat="49.8831" lon="2.37414">
        <ele>31.9</ele>
        <time>2020-09-17T09:13:05.000Z</time>
      </trkpt>
      <trkpt lat="49.88312" lon="2.374">
        <ele>31.8</ele>
        <time>2020-09-17T09:13:11.000Z</time>
      </trkpt>
      <trkpt lat="49.88313" lon="2.37386">
        <ele>30.4</ele>
        <time>2020-09-17T09:13:18.000Z</time>
      </trkpt>
      <trkpt lat="49.88316" lon="2.37371">
        <ele>28.8</ele>
        <time>2020-09-17T09:13:25.000Z</time>
      </trkpt>
      <trkpt lat="49.88319" lon="2.37356">
        <ele>30.1</ele>
        <time>2020-09-17T09:13:32.000Z</time>
      </trkpt>
      <trkpt lat="49.88322" lon="2.37342">
        <ele>31</ele>
        <time>2020-09-17T09:13:40.000Z</time>
      </trkpt>
      <trkpt lat="49.88324" lon="2.37328">
        <ele>19.7</ele>
        <time>2020-09-17T09:13:48.000Z</time>
      </trkpt>
      <trkpt lat="49.88323" lon="2.37313">
        <ele>17</ele>
        <time>2020-09-17T09:13:54.000Z</time>
      </trkpt>
      <trkpt lat="49.88322" lon="2.37297">
        <ele>16.9</ele>
        <time>2020-09-17T09:14:02.000Z</time>
      </trkpt>
      <trkpt lat="49.88324" lon="2.37283">
        <ele>21.1</ele>
        <time>2020-09-17T09:14:09.000Z</time>
      </trkpt>
      <trkpt lat="49.88324" lon="2.37269">
        <ele>19.4</ele>
        <time>2020-09-17T09:14:16.000Z</time>
      </trkpt>
      <trkpt lat="49.88325" lon="2.37253">
        <ele>18.4</ele>
        <time>2020-09-17T09:14:23.000Z</time>
      </trkpt>
      <trkpt lat="49.88324" lon="2.37238">
        <ele>20.6</ele>
        <time>2020-09-17T09:14:29.000Z</time>
      </trkpt>
      <trkpt lat="49.88322" lon="2.37224">
        <ele>23.4</ele>
        <time>2020-09-17T09:14:36.000Z</time>
      </trkpt>
      <trkpt lat="49.88323" lon="2.37208">
        <ele>24</ele>
        <time>2020-09-17T09:14:46.000Z</time>
      </trkpt>
      <trkpt lat="49.88323" lon="2.37194">
        <ele>26.6</ele>
        <time>2020-09-17T09:14:53.000Z</time>
      </trkpt>
      <trkpt lat="49.8832" lon="2.37179">
        <ele>30.7</ele>
        <time>2020-09-17T09:15:02.000Z</time>
      </trkpt>
      <trkpt lat="49.88321" lon="2.37163">
        <ele>31.8</ele>
        <time>2020-09-17T09:15:07.000Z</time>
      </trkpt>
      <trkpt lat="49.88321" lon="2.37148">
        <ele>30.8</ele>
        <time>2020-09-17T09:15:12.000Z</time>
      </trkpt>
      <trkpt lat="49.88322" lon="2.37134">
        <ele>32.1</ele>
        <time>2020-09-17T09:15:18.000Z</time>
      </trkpt>
      <trkpt lat="49.88325" lon="2.3712">
        <ele>32</ele>
        <time>2020-09-17T09:15:25.000Z</time>
      </trkpt>
      <trkpt lat="49.88326" lon="2.37106">
        <ele>31.8</ele>
        <time>2020-09-17T09:15:33.000Z</time>
      </trkpt>
      <trkpt lat="49.88325" lon="2.37091">
        <ele>32.6</ele>
        <time>2020-09-17T09:15:41.000Z</time>
      </trkpt>
      <trkpt lat="49.88327" lon="2.37076">
        <ele>32.8</ele>
        <time>2020-09-17T09:15:50.000Z</time>
      </trkpt>
      <trkpt lat="49.88329" lon="2.37061">
        <ele>32.7</ele>
        <time>2020-09-17T09:16:02.000Z</time>
      </trkpt>
      <trkpt lat="49.8833" lon="2.37046">
        <ele>32.1</ele>
        <time>2020-09-17T09:16:12.000Z</time>
      </trkpt>
      <trkpt lat="49.88328" lon="2.37033">
        <ele>30.9</ele>
        <time>2020-09-17T09:16:23.000Z</time>
      </trkpt>
      <trkpt lat="49.88325" lon="2.37019">
        <ele>30.9</ele>
        <time>2020-09-17T09:16:32.000Z</time>
      </trkpt>
      <trkpt lat="49.88326" lon="2.37004">
        <ele>30.1</ele>
        <time>2020-09-17T09:16:40.000Z</time>
      </trkpt>
      <trkpt lat="49.88326" lon="2.36988">
        <ele>32.3</ele>
        <time>2020-09-17T09:16:47.000Z</time>
      </trkpt>
      <trkpt lat="49.88328" lon="2.36974">
        <ele>30.5</ele>
        <time>2020-09-17T09:16:54.000Z</time>
      </trkpt>
      <trkpt lat="49.88328" lon="2.36959">
        <ele>31.1</ele>
        <time>2020-09-17T09:17:01.000Z</time>
      </trkpt>
      <trkpt lat="49.88326" lon="2.36944">
        <ele>29.6</ele>
        <time>2020-09-17T09:17:09.000Z</time>
      </trkpt>
      <trkpt lat="49.88325" lon="2.3693">
        <ele>32.1</ele>
        <time>2020-09-17T09:17:15.000Z</time>
      </trkpt>
      <trkpt lat="49.88326" lon="2.36916">
        <ele>31.1</ele>
        <time>2020-09-17T09:17:23.000Z</time>
      </trkpt>
      <trkpt lat="49.88326" lon="2.36902">
        <ele>30.4</ele>
        <time>2020-09-17T09:17:30.000Z</time>
      </trkpt>
      <trkpt lat="49.88325" lon="2.36886">
        <ele>32.7</ele>
        <time>2020-09-17T09:17:37.000Z</time>
      </trkpt>
      <trkpt lat="49.88327" lon="2.36871">
        <ele>29.2</ele>
        <time>2020-09-17T09:17:45.000Z</time>
      </trkpt>
      <trkpt lat="49.88329" lon="2.36857">
        <ele>29.4</ele>
        <time>2020-09-17T09:17:54.000Z</time>
      </trkpt>
      <trkpt lat="49.88331" lon="2.36843">
        <ele>29.7</ele>
        <time>2020-09-17T09:18:03.000Z</time>
      </trkpt>
      <trkpt lat="49.88328" lon="2.36829">
        <ele>32.2</ele>
        <time>2020-09-17T09:18:11.000Z</time>
      </trkpt>
      <trkpt lat="49.88326" lon="2.36815">
        <ele>28.1</ele>
        <time>2020-09-17T09:18:19.000Z</time>
      </trkpt>
      <trkpt lat="49.88325" lon="2.36799">
        <ele>29.7</ele>
        <time>2020-09-17T09:18:25.000Z</time>
      </trkpt>
      <trkpt lat="49.88322" lon="2.36785">
        <ele>29.2</ele>
        <time>2020-09-17T09:18:33.000Z</time>
      </trkpt>
      <trkpt lat="49.8832" lon="2.36771">
        <ele>32</ele>
        <time>2020-09-17T09:18:40.000Z</time>
      </trkpt>
      <trkpt lat="49.8832" lon="2.36755">
        <ele>28.1</ele>
        <time>2020-09-17T09:18:49.000Z</time>
      </trkpt>
      <trkpt lat="49.88317" lon="2.36741">
        <ele>29.5</ele>
        <time>2020-09-17T09:18:57.000Z</time>
      </trkpt>
      <trkpt lat="49.88312" lon="2.36727">
        <ele>30.2</ele>
        <time>2020-09-17T09:19:05.000Z</time>
      </trkpt>
      <trkpt lat="49.88309" lon="2.36715">
        <ele>30.8</ele>
        <time>2020-09-17T09:19:13.000Z</time>
      </trkpt>
      <trkpt lat="49.88305" lon="2.36699">
        <ele>33.3</ele>
        <time>2020-09-17T09:19:20.000Z</time>
      </trkpt>
      <trkpt lat="49.88301" lon="2.36685">
        <ele>30.4</ele>
        <time>2020-09-17T09:19:28.000Z</time>
      </trkpt>
      <trkpt lat="49.88296" lon="2.36673">
        <ele>30.3</ele>
        <time>2020-09-17T09:19:36.000Z</time>
      </trkpt>
      <trkpt lat="49.88291" lon="2.36661">
        <ele>30.7</ele>
        <time>2020-09-17T09:19:43.000Z</time>
      </trkpt>
      <trkpt lat="49.88286" lon="2.36648">
        <ele>29.8</ele>
        <time>2020-09-17T09:19:50.000Z</time>
      </trkpt>
      <trkpt lat="49.88283" lon="2.36634">
        <ele>29</ele>
        <time>2020-09-17T09:19:58.000Z</time>
      </trkpt>
      <trkpt lat="49.88277" lon="2.36621">
        <ele>31.3</ele>
        <time>2020-09-17T09:20:05.000Z</time>
      </trkpt>
      <trkpt lat="49.88273" lon="2.36606">
        <ele>26</ele>
        <time>2020-09-17T09:20:14.000Z</time>
      </trkpt>
      <trkpt lat="49.88271" lon="2.3659">
        <ele>28.5</ele>
        <time>2020-09-17T09:20:21.000Z</time>
      </trkpt>
      <trkpt lat="49.88267" lon="2.36577">
        <ele>29.4</ele>
        <time>2020-09-17T09:20:28.000Z</time>
      </trkpt>
      <trkpt lat="49.88262" lon="2.36562">
        <ele>26.5</ele>
        <time>2020-09-17T09:20:37.000Z</time>
      </trkpt>
      <trkpt lat="49.88256" lon="2.3655">
        <ele>29.5</ele>
        <time>2020-09-17T09:20:44.000Z</time>
      </trkpt>
      <trkpt lat="49.88251" lon="2.36537">
        <ele>26.9</ele>
        <time>2020-09-17T09:20:51.000Z</time>
      </trkpt>
      <trkpt lat="49.88246" lon="2.36524">
        <ele>27.1</ele>
        <time>2020-09-17T09:20:59.000Z</time>
      </trkpt>
      <trkpt lat="49.88239" lon="2.36514">
        <ele>29</ele>
        <time>2020-09-17T09:21:05.000Z</time>
      </trkpt>
      <trkpt lat="49.88233" lon="2.36503">
        <ele>30.6</ele>
        <time>2020-09-17T09:21:11.000Z</time>
      </trkpt>
      <trkpt lat="49.88228" lon="2.36491">
        <ele>25.8</ele>
        <time>2020-09-17T09:21:19.000Z</time>
      </trkpt>
      <trkpt lat="49.8822" lon="2.36483">
        <ele>28.3</ele>
        <time>2020-09-17T09:21:26.000Z</time>
      </trkpt>
      <trkpt lat="49.88212" lon="2.36476">
        <ele>30.6</ele>
        <time>2020-09-17T09:21:32.000Z</time>
      </trkpt>
      <trkpt lat="49.88204" lon="2.36468">
        <ele>28.1</ele>
        <time>2020-09-17T09:21:41.000Z</time>
      </trkpt>
      <trkpt lat="49.88196" lon="2.36461">
        <ele>28.8</ele>
        <time>2020-09-17T09:21:47.000Z</time>
      </trkpt>
      <trkpt lat="49.8819" lon="2.3645">
        <ele>28.1</ele>
        <time>2020-09-17T09:21:54.000Z</time>
      </trkpt>
      <trkpt lat="49.88185" lon="2.36438">
        <ele>25.2</ele>
        <time>2020-09-17T09:22:01.000Z</time>
      </trkpt>
      <trkpt lat="49.8818" lon="2.36425">
        <ele>27.9</ele>
        <time>2020-09-17T09:22:08.000Z</time>
      </trkpt>
      <trkpt lat="49.88177" lon="2.3641">
        <ele>29.7</ele>
        <time>2020-09-17T09:22:14.000Z</time>
      </trkpt>
      <trkpt lat="49.88174" lon="2.36395">
        <ele>25.5</ele>
        <time>2020-09-17T09:22:23.000Z</time>
      </trkpt>
      <trkpt lat="49.88169" lon="2.36383">
        <ele>28.2</ele>
        <time>2020-09-17T09:22:30.000Z</time>
      </trkpt>
      <trkpt lat="49.88164" lon="2.36368">
        <ele>30.3</ele>
        <time>2020-09-17T09:22:37.000Z</time>
      </trkpt>
      <trkpt lat="49.8816" lon="2.36355">
        <ele>26</ele>
        <time>2020-09-17T09:22:45.000Z</time>
      </trkpt>
      <trkpt lat="49.88156" lon="2.3634">
        <ele>28.8</ele>
        <time>2020-09-17T09:22:53.000Z</time>
      </trkpt>
      <trkpt lat="49.88151" lon="2.36327">
        <ele>30.8</ele>
        <time>2020-09-17T09:23:00.000Z</time>
      </trkpt>
      <trkpt lat="49.88149" lon="2.36312">
        <ele>28</ele>
        <time>2020-09-17T09:23:10.000Z</time>
      </trkpt>
      <trkpt lat="49.88145" lon="2.36298">
        <ele>30.4</ele>
        <time>2020-09-17T09:23:18.000Z</time>
      </trkpt>
      <trkpt lat="49.88141" lon="2.36284">
        <ele>26.3</ele>
        <time>2020-09-17T09:23:26.000Z</time>
      </trkpt>
      <trkpt lat="49.88137" lon="2.36271">
        <ele>28.5</ele>
        <time>2020-09-17T09:23:32.000Z</time>
      </trkpt>
      <trkpt lat="49.88136" lon="2.36256">
        <ele>29.9</ele>
        <time>2020-09-17T09:23:38.000Z</time>
      </trkpt>
      <trkpt lat="49.88134" lon="2.36242">
        <ele>24.5</ele>
        <time>2020-09-17T09:23:46.000Z</time>
      </trkpt>
      <trkpt lat="49.8813" lon="2.36227">
        <ele>27.4</ele>
        <time>2020-09-17T09:23:55.000Z</time>
      </trkpt>
      <trkpt lat="49.88127" lon="2.36214">
        <ele>28</ele>
        <time>2020-09-17T09:24:03.000Z</time>
      </trkpt>
      <trkpt lat="49.88123" lon="2.362">
        <ele>24.3</ele>
        <time>2020-09-17T09:24:11.000Z</time>
      </trkpt>
      <trkpt lat="49.88118" lon="2.36187">
        <ele>27.8</ele>
        <time>2020-09-17T09:24:18.000Z</time>
      </trkpt>
      <trkpt lat="49.88112" lon="2.36174">
        <ele>25</ele>
        <time>2020-09-17T09:24:25.000Z</time>
      </trkpt>
      <trkpt lat="49.88107" lon="2.36162">
        <ele>24.8</ele>
        <time>2020-09-17T09:24:33.000Z</time>
      </trkpt>
      <trkpt lat="49.88104" lon="2.36149">
        <ele>28.4</ele>
        <time>2020-09-17T09:24:39.000Z</time>
      </trkpt>
      <trkpt lat="49.88102" lon="2.36135">
        <ele>28.2</ele>
        <time>2020-09-17T09:24:48.000Z</time>
      </trkpt>
      <trkpt lat="49.88098" lon="2.3612">
        <ele>27.9</ele>
        <time>2020-09-17T09:24:55.000Z</time>
      </trkpt>
      <trkpt lat="49.88096" lon="2.36106">
        <ele>30.1</ele>
        <time>2020-09-17T09:25:03.000Z</time>
      </trkpt>
      <trkpt lat="49.88094" lon="2.36091">
        <ele>26.5</ele>
        <time>2020-09-17T09:25:10.000Z</time>
      </trkpt>
      <trkpt lat="49.88089" lon="2.36077">
        <ele>27.9</ele>
        <time>2020-09-17T09:25:16.000Z</time>
      </trkpt>
      <trkpt lat="49.88085" lon="2.36063">
        <ele>28.1</ele>
        <time>2020-09-17T09:25:23.000Z</time>
      </trkpt>
      <trkpt lat="49.88078" lon="2.36051">
        <ele>26.7</ele>
        <time>2020-09-17T09:25:31.000Z</time>
      </trkpt>
      <trkpt lat="49.88075" lon="2.36037">
        <ele>27.8</ele>
        <time>2020-09-17T09:25:37.000Z</time>
      </trkpt>
      <trkpt lat="49.8807" lon="2.36025">
        <ele>27.8</ele>
        <time>2020-09-17T09:25:44.000Z</time>
      </trkpt>
      <trkpt lat="49.88065" lon="2.36013">
        <ele>25.3</ele>
        <time>2020-09-17T09:25:52.000Z</time>
      </trkpt>
      <trkpt lat="49.88061" lon="2.35999">
        <ele>26.7</ele>
        <time>2020-09-17T09:25:57.000Z</time>
      </trkpt>
      <trkpt lat="49.88057" lon="2.35986">
        <ele>28.4</ele>
        <time>2020-09-17T09:26:03.000Z</time>
      </trkpt>
      <trkpt lat="49.88055" lon="2.35973">
        <ele>30</ele>
        <time>2020-09-17T09:26:10.000Z</time>
      </trkpt>
      <trkpt lat="49.88054" lon="2.35958">
        <ele>23.4</ele>
        <time>2020-09-17T09:26:19.000Z</time>
      </trkpt>
      <trkpt lat="49.88049" lon="2.35946">
        <ele>26.5</ele>
        <time>2020-09-17T09:26:25.000Z</time>
      </trkpt>
      <trkpt lat="49.88044" lon="2.35931">
        <ele>27.6</ele>
        <time>2020-09-17T09:26:31.000Z</time>
      </trkpt>
      <trkpt lat="49.88039" lon="2.3592">
        <ele>27.9</ele>
        <time>2020-09-17T09:26:37.000Z</time>
      </trkpt>
      <trkpt lat="49.88033" lon="2.35908">
        <ele>26.4</ele>
        <time>2020-09-17T09:26:45.000Z</time>
      </trkpt>
      <trkpt lat="49.88029" lon="2.35895">
        <ele>28.6</ele>
        <time>2020-09-17T09:26:51.000Z</time>
      </trkpt>
      <trkpt lat="49.88026" lon="2.35879">
        <ele>26</ele>
        <time>2020-09-17T09:27:00.000Z</time>
      </trkpt>
      <trkpt lat="49.88026" lon="2.35865">
        <ele>25.3</ele>
        <time>2020-09-17T09:27:06.000Z</time>
      </trkpt>
      <trkpt lat="49.88021" lon="2.35853">
        <ele>25.9</ele>
        <time>2020-09-17T09:27:13.000Z</time>
      </trkpt>
      <trkpt lat="49.88016" lon="2.35839">
        <ele>25.4</ele>
        <time>2020-09-17T09:27:21.000Z</time>
      </trkpt>
      <trkpt lat="49.88011" lon="2.35827">
        <ele>23.3</ele>
        <time>2020-09-17T09:27:28.000Z</time>
      </trkpt>
      <trkpt lat="49.88005" lon="2.35814">
        <ele>26.9</ele>
        <time>2020-09-17T09:27:35.000Z</time>
      </trkpt>
      <trkpt lat="49.88" lon="2.35802">
        <ele>26.2</ele>
        <time>2020-09-17T09:27:41.000Z</time>
      </trkpt>
      <trkpt lat="49.88" lon="2.35786">
        <ele>24.2</ele>
        <time>2020-09-17T09:27:48.000Z</time>
      </trkpt>
      <trkpt lat="49.87996" lon="2.35772">
        <ele>26.3</ele>
        <time>2020-09-17T09:27:54.000Z</time>
      </trkpt>
      <trkpt lat="49.8799" lon="2.3576">
        <ele>28.5</ele>
        <time>2020-09-17T09:28:00.000Z</time>
      </trkpt>
      <trkpt lat="49.87986" lon="2.35746">
        <ele>23.7</ele>
        <time>2020-09-17T09:28:08.000Z</time>
      </trkpt>
      <trkpt lat="49.87984" lon="2.35731">
        <ele>26.2</ele>
        <time>2020-09-17T09:28:14.000Z</time>
      </trkpt>
      <trkpt lat="49.87979" lon="2.35718">
        <ele>27.5</ele>
        <time>2020-09-17T09:28:20.000Z</time>
      </trkpt>
      <trkpt lat="49.87976" lon="2.35704">
        <ele>24.9</ele>
        <time>2020-09-17T09:28:29.000Z</time>
      </trkpt>
      <trkpt lat="49.87971" lon="2.35691">
        <ele>24.7</ele>
        <time>2020-09-17T09:29:22.000Z</time>
      </trkpt>
      <trkpt lat="49.87967" lon="2.35678">
        <ele>27.7</ele>
        <time>2020-09-17T09:29:29.000Z</time>
      </trkpt>
      <trkpt lat="49.87964" lon="2.35664">
        <ele>28.4</ele>
        <time>2020-09-17T09:29:37.000Z</time>
      </trkpt>
      <trkpt lat="49.87961" lon="2.3565">
        <ele>26</ele>
        <time>2020-09-17T09:29:45.000Z</time>
      </trkpt>
      <trkpt lat="49.87957" lon="2.35637">
        <ele>27.3</ele>
        <time>2020-09-17T09:29:52.000Z</time>
      </trkpt>
      <trkpt lat="49.87952" lon="2.35625">
        <ele>28.2</ele>
        <time>2020-09-17T09:29:57.000Z</time>
      </trkpt>
      <trkpt lat="49.87947" lon="2.35611">
        <ele>30.2</ele>
        <time>2020-09-17T09:30:04.000Z</time>
      </trkpt>
      <trkpt lat="49.87945" lon="2.35596">
        <ele>25.1</ele>
        <time>2020-09-17T09:30:14.000Z</time>
      </trkpt>
      <trkpt lat="49.87942" lon="2.35582">
        <ele>27.9</ele>
        <time>2020-09-17T09:30:21.000Z</time>
      </trkpt>
      <trkpt lat="49.87939" lon="2.35568">
        <ele>29.3</ele>
        <time>2020-09-17T09:30:28.000Z</time>
      </trkpt>
      <trkpt lat="49.8794" lon="2.35554">
        <ele>28.4</ele>
        <time>2020-09-17T09:30:39.000Z</time>
      </trkpt>
      <trkpt lat="49.87931" lon="2.35548">
        <ele>28.4</ele>
        <time>2020-09-17T09:31:20.000Z</time>
      </trkpt>
      <trkpt lat="49.87928" lon="2.35534">
        <ele>22.4</ele>
        <time>2020-09-17T09:31:28.000Z</time>
      </trkpt>
      <trkpt lat="49.87926" lon="2.35519">
        <ele>25.5</ele>
        <time>2020-09-17T09:31:36.000Z</time>
      </trkpt>
      <trkpt lat="49.87922" lon="2.35505">
        <ele>27.2</ele>
        <time>2020-09-17T09:31:43.000Z</time>
      </trkpt>
      <trkpt lat="49.87917" lon="2.35492">
        <ele>29.1</ele>
        <time>2020-09-17T09:31:50.000Z</time>
      </trkpt>
      <trkpt lat="49.87916" lon="2.35478">
        <ele>26.6</ele>
        <time>2020-09-17T09:32:03.000Z</time>
      </trkpt>
      <trkpt lat="49.87913" lon="2.35463">
        <ele>27.1</ele>
        <time>2020-09-17T09:32:09.000Z</time>
      </trkpt>
      <trkpt lat="49.8791" lon="2.3545">
        <ele>27.7</ele>
        <time>2020-09-17T09:32:17.000Z</time>
      </trkpt>
      <trkpt lat="49.87906" lon="2.35436">
        <ele>29.4</ele>
        <time>2020-09-17T09:32:24.000Z</time>
      </trkpt>
      <trkpt lat="49.87902" lon="2.35423">
        <ele>28.1</ele>
        <time>2020-09-17T09:32:31.000Z</time>
      </trkpt>
      <trkpt lat="49.87899" lon="2.35406">
        <ele>24.9</ele>
        <time>2020-09-17T09:32:38.000Z</time>
      </trkpt>
      <trkpt lat="49.87896" lon="2.35393">
        <ele>26.6</ele>
        <time>2020-09-17T09:32:43.000Z</time>
      </trkpt>
      <trkpt lat="49.87889" lon="2.35381">
        <ele>27.8</ele>
        <time>2020-09-17T09:32:49.000Z</time>
      </trkpt>
      <trkpt lat="49.87885" lon="2.35367">
        <ele>29.1</ele>
        <time>2020-09-17T09:32:55.000Z</time>
      </trkpt>
      <trkpt lat="49.87884" lon="2.35352">
        <ele>26.1</ele>
        <time>2020-09-17T09:33:04.000Z</time>
      </trkpt>
      <trkpt lat="49.8788" lon="2.35339">
        <ele>28.6</ele>
        <time>2020-09-17T09:33:12.000Z</time>
      </trkpt>
      <trkpt lat="49.87877" lon="2.35324">
        <ele>29.9</ele>
        <time>2020-09-17T09:33:19.000Z</time>
      </trkpt>
      <trkpt lat="49.87874" lon="2.35311">
        <ele>25.3</ele>
        <time>2020-09-17T09:33:27.000Z</time>
      </trkpt>
      <trkpt lat="49.87872" lon="2.35296">
        <ele>27.7</ele>
        <time>2020-09-17T09:33:34.000Z</time>
      </trkpt>
      <trkpt lat="49.87867" lon="2.35284">
        <ele>28</ele>
        <time>2020-09-17T09:33:44.000Z</time>
      </trkpt>
      <trkpt lat="49.87865" lon="2.3527">
        <ele>26.2</ele>
        <time>2020-09-17T09:33:56.000Z</time>
      </trkpt>
      <trkpt lat="49.87862" lon="2.35256">
        <ele>28.3</ele>
        <time>2020-09-17T09:38:06.000Z</time>
      </trkpt>
      <trkpt lat="49.87859" lon="2.35243">
        <ele>28.1</ele>
        <time>2020-09-17T09:38:14.000Z</time>
      </trkpt>
      <trkpt lat="49.87856" lon="2.35229">
        <ele>28.2</ele>
        <time>2020-09-17T09:38:26.000Z</time>
      </trkpt>
      <trkpt lat="49.87858" lon="2.35216">
        <ele>26.9</ele>
        <time>2020-09-17T09:38:36.000Z</time>
      </trkpt>
      <trkpt lat="49.87867" lon="2.35211">
        <ele>28.4</ele>
        <time>2020-09-17T09:38:45.000Z</time>
      </trkpt>
      <trkpt lat="49.87877" lon="2.35211">
        <ele>24.7</ele>
        <time>2020-09-17T09:38:51.000Z</time>
      </trkpt>
      <trkpt lat="49.87887" lon="2.35208">
        <ele>28.1</ele>
        <time>2020-09-17T09:38:59.000Z</time>
      </trkpt>
      <trkpt lat="49.87895" lon="2.35201">
        <ele>29</ele>
        <time>2020-09-17T09:39:08.000Z</time>
      </trkpt>
      <trkpt lat="49.87905" lon="2.35198">
        <ele>28.9</ele>
        <time>2020-09-17T09:39:15.000Z</time>
      </trkpt>
      <trkpt lat="49.87914" lon="2.35197">
        <ele>27.2</ele>
        <time>2020-09-17T09:39:21.000Z</time>
      </trkpt>
      <trkpt lat="49.87923" lon="2.35198">
        <ele>28.4</ele>
        <time>2020-09-17T09:39:30.000Z</time>
      </trkpt>
      <trkpt lat="49.87933" lon="2.35195">
        <ele>29.4</ele>
        <time>2020-09-17T09:39:37.000Z</time>
      </trkpt>
      <trkpt lat="49.87942" lon="2.35197">
        <ele>27</ele>
        <time>2020-09-17T09:39:45.000Z</time>
      </trkpt>
      <trkpt lat="49.87951" lon="2.35199">
        <ele>26.7</ele>
        <time>2020-09-17T09:39:53.000Z</time>
      </trkpt>
      <trkpt lat="49.87961" lon="2.35199">
        <ele>28</ele>
        <time>2020-09-17T09:39:59.000Z</time>
      </trkpt>
      <trkpt lat="49.87971" lon="2.352">
        <ele>27.9</ele>
        <time>2020-09-17T09:40:05.000Z</time>
      </trkpt>
      <trkpt lat="49.87981" lon="2.35203">
        <ele>26.1</ele>
        <time>2020-09-17T09:40:12.000Z</time>
      </trkpt>
      <trkpt lat="49.8799" lon="2.35204">
        <ele>25.4</ele>
        <time>2020-09-17T09:40:23.000Z</time>
      </trkpt>
      <trkpt lat="49.87999" lon="2.35208">
        <ele>28.1</ele>
        <time>2020-09-17T09:40:33.000Z</time>
      </trkpt>
      <trkpt lat="49.8801" lon="2.35208">
        <ele>28.6</ele>
        <time>2020-09-17T09:40:40.000Z</time>
      </trkpt>
      <trkpt lat="49.88019" lon="2.3521">
        <ele>29.8</ele>
        <time>2020-09-17T09:40:48.000Z</time>
      </trkpt>
      <trkpt lat="49.88028" lon="2.35212">
        <ele>27.4</ele>
        <time>2020-09-17T09:40:56.000Z</time>
      </trkpt>
      <trkpt lat="49.88037" lon="2.35213">
        <ele>26.5</ele>
        <time>2020-09-17T09:41:05.000Z</time>
      </trkpt>
      <trkpt lat="49.88047" lon="2.35211">
        <ele>27.7</ele>
        <time>2020-09-17T09:41:11.000Z</time>
      </trkpt>
      <trkpt lat="49.88055" lon="2.35216">
        <ele>28.9</ele>
        <time>2020-09-17T09:41:16.000Z</time>
      </trkpt>
      <trkpt lat="49.88064" lon="2.3522">
        <ele>25.6</ele>
        <time>2020-09-17T09:41:22.000Z</time>
      </trkpt>
      <trkpt lat="49.88073" lon="2.35219">
        <ele>25</ele>
        <time>2020-09-17T09:41:31.000Z</time>
      </trkpt>
      <trkpt lat="49.88083" lon="2.35219">
        <ele>25.5</ele>
        <time>2020-09-17T09:41:38.000Z</time>
      </trkpt>
      <trkpt lat="49.88092" lon="2.35221">
        <ele>29.1</ele>
        <time>2020-09-17T09:41:46.000Z</time>
      </trkpt>
      <trkpt lat="49.88102" lon="2.35222">
        <ele>28.3</ele>
        <time>2020-09-17T09:41:54.000Z</time>
      </trkpt>
      <trkpt lat="49.88111" lon="2.35223">
        <ele>29.2</ele>
        <time>2020-09-17T09:42:01.000Z</time>
      </trkpt>
      <trkpt lat="49.88121" lon="2.35227">
        <ele>29.8</ele>
        <time>2020-09-17T09:42:09.000Z</time>
      </trkpt>
      <trkpt lat="49.8813" lon="2.35228">
        <ele>26.1</ele>
        <time>2020-09-17T09:42:18.000Z</time>
      </trkpt>
      <trkpt lat="49.8814" lon="2.3523">
        <ele>26.2</ele>
        <time>2020-09-17T09:42:26.000Z</time>
      </trkpt>
      <trkpt lat="49.8815" lon="2.35229">
        <ele>28.1</ele>
        <time>2020-09-17T09:42:32.000Z</time>
      </trkpt>
      <trkpt lat="49.88159" lon="2.3523">
        <ele>28.9</ele>
        <time>2020-09-17T09:42:38.000Z</time>
      </trkpt>
      <trkpt lat="49.88169" lon="2.35231">
        <ele>29.9</ele>
        <time>2020-09-17T09:42:45.000Z</time>
      </trkpt>
      <trkpt lat="49.88179" lon="2.35233">
        <ele>26.3</ele>
        <time>2020-09-17T09:42:52.000Z</time>
      </trkpt>
      <trkpt lat="49.88187" lon="2.35236">
        <ele>23.4</ele>
        <time>2020-09-17T09:43:00.000Z</time>
      </trkpt>
      <trkpt lat="49.88197" lon="2.35238">
        <ele>25.9</ele>
        <time>2020-09-17T09:43:07.000Z</time>
      </trkpt>
      <trkpt lat="49.88207" lon="2.35239">
        <ele>28.5</ele>
        <time>2020-09-17T09:43:14.000Z</time>
      </trkpt>
      <trkpt lat="49.88216" lon="2.35239">
        <ele>29.9</ele>
        <time>2020-09-17T09:43:21.000Z</time>
      </trkpt>
      <trkpt lat="49.88225" lon="2.3524">
        <ele>29.5</ele>
        <time>2020-09-17T09:43:28.000Z</time>
      </trkpt>
      <trkpt lat="49.88234" lon="2.35242">
        <ele>24.2</ele>
        <time>2020-09-17T09:43:37.000Z</time>
      </trkpt>
      <trkpt lat="49.88244" lon="2.35245">
        <ele>28.1</ele>
        <time>2020-09-17T09:43:49.000Z</time>
      </trkpt>
      <trkpt lat="49.88253" lon="2.35249">
        <ele>29.4</ele>
        <time>2020-09-17T09:43:55.000Z</time>
      </trkpt>
      <trkpt lat="49.88263" lon="2.3525">
        <ele>29</ele>
        <time>2020-09-17T09:44:03.000Z</time>
      </trkpt>
      <trkpt lat="49.88272" lon="2.35254">
        <ele>29.5</ele>
        <time>2020-09-17T09:44:11.000Z</time>
      </trkpt>
      <trkpt lat="49.88277" lon="2.35267">
        <ele>27.9</ele>
        <time>2020-09-17T09:44:22.000Z</time>
      </trkpt>
      <trkpt lat="49.88301" lon="2.35368">
        <ele>31.1</ele>
        <time>2020-09-17T09:45:01.000Z</time>
      </trkpt>
    </trkseg>
  </trk>
</gpx>